Back to Top

Language: 

My Weather Underground Personal Weather Station Historical Data with Graphs...

Delerius Weather Station Historical Data
Daily Summary for January 4, 2018 Units:  Both    English   Metric
« Previous Day
Next Day »
Daily Weekly Monthly Yearly Custom
  High: Low: Average:
Temperature: 50.4 °F /  10.2 °C 40.6 °F /  4.8 °C 43.9 °F /  6.6 °C
Dew Point: 46.8 °F /  8.2 °C 37.3 °F /  2.9 °C 40.6 °F /  4.8 °C
Humidity: 96 % 83 % 88 %
Wind Speed: 28.0 mph /  45.1 km/h - 10.9 mph /  17.5 km/h
Wind Gust: 53.0 mph /  85.3 km/h - -
Wind:- - SW
Pressure: 29.38 in /  994.8 hPa 29.01 in /  982.3 hPa -
Precipitation: 0.05 in /  1.27 mm    
Historical Graphs
 
 
Tabular Data for January 4, 2018
Time Temperature Dew Point Pressure Wind Wind Speed Wind Gust Humidity Rainfall Rate (Hourly) solar Conditions
00:00 44.8 °F /  7.1 °C 41.4 °F /  5.2 °C 29.37 in /  994.5 hPa West 18.0 mph /  29 km/h 26.0 mph /  41.8 km/h 88 % 0.00 in /  0 mm 0 W/m2
00:06 44.8 °F /  7.1 °C 41.4 °F /  5.2 °C 29.37 in /  994.5 hPa West 17.0 mph /  27.4 km/h 26.0 mph /  41.8 km/h 88 % 0.00 in /  0 mm 0 W/m2
00:07 44.8 °F /  7.1 °C 41.4 °F /  5.2 °C 29.37 in /  994.5 hPa West 18.0 mph /  29 km/h 26.0 mph /  41.8 km/h 88 % 0.00 in /  0 mm 0 W/m2
00:08 44.8 °F /  7.1 °C 41.4 °F /  5.2 °C 29.37 in /  994.5 hPa West 16.0 mph /  25.7 km/h 26.0 mph /  41.8 km/h 88 % 0.00 in /  0 mm 0 W/m2
00:14 45.0 °F /  7.2 °C 41.6 °F /  5.3 °C 29.37 in /  994.5 hPa West 14.0 mph /  22.5 km/h 23.0 mph /  37 km/h 88 % 0.00 in /  0 mm 0 W/m2
00:16 45.0 °F /  7.2 °C 41.6 °F /  5.3 °C 29.36 in /  994.1 hPa West 13.0 mph /  20.9 km/h 23.0 mph /  37 km/h 88 % 0.00 in /  0 mm 0 W/m2
00:17 45.0 °F /  7.2 °C 41.6 °F /  5.3 °C 29.36 in /  994.1 hPa West 13.0 mph /  20.9 km/h 19.0 mph /  30.6 km/h 88 % 0.00 in /  0 mm 0 W/m2
00:22 45.0 °F /  7.2 °C 41.6 °F /  5.3 °C 29.37 in /  994.5 hPa West 16.0 mph /  25.7 km/h 24.0 mph /  38.6 km/h 88 % 0.00 in /  0 mm 0 W/m2
00:24 45.0 °F /  7.2 °C 41.6 °F /  5.3 °C 29.36 in /  994.1 hPa West 16.0 mph /  25.7 km/h 22.0 mph /  35.4 km/h 88 % 0.00 in /  0 mm 0 W/m2
00:29 45.1 °F /  7.3 °C 41.8 °F /  5.4 °C 29.36 in /  994.1 hPa WSW 16.0 mph /  25.7 km/h 23.0 mph /  37 km/h 88 % 0.00 in /  0 mm 0 W/m2
00:34 45.1 °F /  7.3 °C 41.5 °F /  5.3 °C 29.36 in /  994.1 hPa WSW 14.0 mph /  22.5 km/h 24.0 mph /  38.6 km/h 87 % 0.00 in /  0 mm 0 W/m2
00:39 45.3 °F /  7.4 °C 41.7 °F /  5.4 °C 29.35 in /  993.8 hPa West 14.0 mph /  22.5 km/h 22.0 mph /  35.4 km/h 87 % 0.00 in /  0 mm 0 W/m2
00:41 45.3 °F /  7.4 °C 41.7 °F /  5.4 °C 29.36 in /  994.1 hPa West 14.0 mph /  22.5 km/h 22.0 mph /  35.4 km/h 87 % 0.00 in /  0 mm 0 W/m2
00:46 45.3 °F /  7.4 °C 41.7 °F /  5.4 °C 29.36 in /  994.1 hPa West 12.0 mph /  19.3 km/h 23.0 mph /  37 km/h 87 % 0.00 in /  0 mm 0 W/m2
00:47 45.1 °F /  7.3 °C 41.5 °F /  5.3 °C 29.36 in /  994.1 hPa West 10.0 mph /  16.1 km/h 19.0 mph /  30.6 km/h 87 % 0.00 in /  0 mm 0 W/m2
00:52 45.1 °F /  7.3 °C 41.5 °F /  5.3 °C 29.35 in /  993.8 hPa West 12.0 mph /  19.3 km/h 24.0 mph /  38.6 km/h 87 % 0.00 in /  0 mm 0 W/m2
00:53 45.1 °F /  7.3 °C 41.5 °F /  5.3 °C 29.35 in /  993.8 hPa West 11.0 mph /  17.7 km/h 20.0 mph /  32.2 km/h 87 % 0.00 in /  0 mm 0 W/m2
00:57 45.0 °F /  7.2 °C 41.3 °F /  5.2 °C 29.35 in /  993.8 hPa West 12.0 mph /  19.3 km/h 19.0 mph /  30.6 km/h 87 % 0.00 in /  0 mm 0 W/m2
01:03 45.0 °F /  7.2 °C 41.0 °F /  5 °C 29.36 in /  994.1 hPa West 11.0 mph /  17.7 km/h 20.0 mph /  32.2 km/h 86 % 0.00 in /  0 mm 0 W/m2
01:08 45.0 °F /  7.2 °C 41.0 °F /  5 °C 29.36 in /  994.1 hPa WSW 10.0 mph /  16.1 km/h 18.0 mph /  29 km/h 86 % 0.00 in /  0 mm 0 W/m2
01:10 45.0 °F /  7.2 °C 41.0 °F /  5 °C 29.36 in /  994.1 hPa WSW 11.0 mph /  17.7 km/h 18.0 mph /  29 km/h 86 % 0.00 in /  0 mm 0 W/m2
01:15 45.0 °F /  7.2 °C 41.0 °F /  5 °C 29.36 in /  994.1 hPa West 8.0 mph /  12.9 km/h 12.0 mph /  19.3 km/h 86 % 0.00 in /  0 mm 0 W/m2
01:19 45.0 °F /  7.2 °C 41.0 °F /  5 °C 29.36 in /  994.1 hPa West 9.0 mph /  14.5 km/h 16.0 mph /  25.7 km/h 86 % 0.00 in /  0 mm 0 W/m2
01:24 45.0 °F /  7.2 °C 41.0 °F /  5 °C 29.36 in /  994.1 hPa West 9.0 mph /  14.5 km/h 13.0 mph /  20.9 km/h 86 % 0.00 in /  0 mm 0 W/m2
01:25 45.0 °F /  7.2 °C 41.0 °F /  5 °C 29.36 in /  994.1 hPa West 8.0 mph /  12.9 km/h 13.0 mph /  20.9 km/h 86 % 0.00 in /  0 mm 0 W/m2
01:30 45.0 °F /  7.2 °C 41.0 °F /  5 °C 29.36 in /  994.1 hPa SW 7.0 mph /  11.3 km/h 12.0 mph /  19.3 km/h 86 % 0.00 in /  0 mm 0 W/m2
01:35 45.0 °F /  7.2 °C 41.0 °F /  5 °C 29.36 in /  994.1 hPa WSW 9.0 mph /  14.5 km/h 18.0 mph /  29 km/h 86 % 0.00 in /  0 mm 0 W/m2
01:36 45.0 °F /  7.2 °C 41.0 °F /  5 °C 29.36 in /  994.1 hPa WSW 9.0 mph /  14.5 km/h 18.0 mph /  29 km/h 86 % 0.00 in /  0 mm 0 W/m2
01:38 45.0 °F /  7.2 °C 41.0 °F /  5 °C 29.36 in /  994.1 hPa WSW 5.0 mph /  8 km/h 9.0 mph /  14.5 km/h 86 % 0.00 in /  0 mm 0 W/m2
01:41 45.0 °F /  7.2 °C 41.0 °F /  5 °C 29.36 in /  994.1 hPa SW 5.0 mph /  8 km/h 11.0 mph /  17.7 km/h 86 % 0.00 in /  0 mm 0 W/m2
01:43 45.0 °F /  7.2 °C 41.0 °F /  5 °C 29.36 in /  994.1 hPa SW 4.0 mph /  6.4 km/h 8.0 mph /  12.9 km/h 86 % 0.00 in /  0 mm 0 W/m2
01:46 45.0 °F /  7.2 °C 41.0 °F /  5 °C 29.37 in /  994.5 hPa WSW 7.0 mph /  11.3 km/h 10.0 mph /  16.1 km/h 86 % 0.00 in /  0 mm 0 W/m2
01:51 45.0 °F /  7.2 °C 41.0 °F /  5 °C 29.36 in /  994.1 hPa SW 5.0 mph /  8 km/h 10.0 mph /  16.1 km/h 86 % 0.00 in /  0 mm 0 W/m2
01:52 45.0 °F /  7.2 °C 41.0 °F /  5 °C 29.36 in /  994.1 hPa SW 5.0 mph /  8 km/h 10.0 mph /  16.1 km/h 86 % 0.00 in /  0 mm 0 W/m2
01:53 45.0 °F /  7.2 °C 41.0 °F /  5 °C 29.36 in /  994.1 hPa SW 2.0 mph /  3.2 km/h 5.0 mph /  8 km/h 86 % 0.00 in /  0 mm 0 W/m2
01:58 45.0 °F /  7.2 °C 41.0 °F /  5 °C 29.37 in /  994.5 hPa West 5.0 mph /  8 km/h 8.0 mph /  12.9 km/h 86 % 0.00 in /  0 mm 0 W/m2
02:00 45.0 °F /  7.2 °C 41.0 °F /  5 °C 29.37 in /  994.5 hPa WNW 4.0 mph /  6.4 km/h 8.0 mph /  12.9 km/h 86 % 0.00 in /  0 mm 0 W/m2
02:05 45.0 °F /  7.2 °C 41.0 °F /  5 °C 29.38 in /  994.8 hPa SW 5.0 mph /  8 km/h 8.0 mph /  12.9 km/h 86 % 0.00 in /  0 mm 0 W/m2
02:08 45.0 °F /  7.2 °C 41.3 °F /  5.2 °C 29.38 in /  994.8 hPa WSW 6.0 mph /  9.7 km/h 9.0 mph /  14.5 km/h 87 % 0.00 in /  0 mm 0 W/m2
02:13 45.0 °F /  7.2 °C 41.3 °F /  5.2 °C 29.38 in /  994.8 hPa SW 5.0 mph /  8 km/h 10.0 mph /  16.1 km/h 87 % 0.00 in /  0 mm 0 W/m2
02:18 45.0 °F /  7.2 °C 41.3 °F /  5.2 °C 29.37 in /  994.5 hPa SW 6.0 mph /  9.7 km/h 12.0 mph /  19.3 km/h 87 % 0.00 in /  0 mm 0 W/m2
02:21 45.0 °F /  7.2 °C 41.3 °F /  5.2 °C 29.37 in /  994.5 hPa SW 7.0 mph /  11.3 km/h 9.0 mph /  14.5 km/h 87 % 0.00 in /  0 mm 0 W/m2
02:23 45.0 °F /  7.2 °C 41.3 °F /  5.2 °C 29.37 in /  994.5 hPa SW 8.0 mph /  12.9 km/h 15.0 mph /  24.1 km/h 87 % 0.00 in /  0 mm 0 W/m2
02:25 45.0 °F /  7.2 °C 41.3 °F /  5.2 °C 29.37 in /  994.5 hPa WSW 7.0 mph /  11.3 km/h 15.0 mph /  24.1 km/h 87 % 0.00 in /  0 mm 0 W/m2
02:30 45.0 °F /  7.2 °C 41.3 °F /  5.2 °C 29.38 in /  994.8 hPa SW 6.0 mph /  9.7 km/h 9.0 mph /  14.5 km/h 87 % 0.00 in /  0 mm 0 W/m2
02:31 45.0 °F /  7.2 °C 41.3 °F /  5.2 °C 29.38 in /  994.8 hPa SW 6.0 mph /  9.7 km/h 9.0 mph /  14.5 km/h 87 % 0.00 in /  0 mm 0 W/m2
02:36 45.0 °F /  7.2 °C 41.0 °F /  5 °C 29.37 in /  994.5 hPa WSW 7.0 mph /  11.3 km/h 11.0 mph /  17.7 km/h 86 % 0.00 in /  0 mm 0 W/m2
02:37 45.0 °F /  7.2 °C 41.0 °F /  5 °C 29.37 in /  994.5 hPa WSW 7.0 mph /  11.3 km/h 11.0 mph /  17.7 km/h 86 % 0.00 in /  0 mm 0 W/m2
02:42 45.0 °F /  7.2 °C 41.0 °F /  5 °C 29.37 in /  994.5 hPa West 7.0 mph /  11.3 km/h 10.0 mph /  16.1 km/h 86 % 0.00 in /  0 mm 0 W/m2
02:47 45.1 °F /  7.3 °C 41.2 °F /  5.1 °C 29.36 in /  994.1 hPa West 9.0 mph /  14.5 km/h 15.0 mph /  24.1 km/h 86 % 0.00 in /  0 mm 0 W/m2
02:48 45.1 °F /  7.3 °C 41.2 °F /  5.1 °C 29.36 in /  994.1 hPa West 10.0 mph /  16.1 km/h 15.0 mph /  24.1 km/h 86 % 0.00 in /  0 mm 0 W/m2
02:49 45.1 °F /  7.3 °C 41.2 °F /  5.1 °C 29.36 in /  994.1 hPa West 10.0 mph /  16.1 km/h 13.0 mph /  20.9 km/h 86 % 0.00 in /  0 mm 0 W/m2
02:54 45.1 °F /  7.3 °C 41.2 °F /  5.1 °C 29.36 in /  994.1 hPa West 10.0 mph /  16.1 km/h 13.0 mph /  20.9 km/h 86 % 0.00 in /  0 mm 0 W/m2
02:59 45.0 °F /  7.2 °C 40.7 °F /  4.8 °C 29.35 in /  993.8 hPa West 10.0 mph /  16.1 km/h 13.0 mph /  20.9 km/h 85 % 0.00 in /  0 mm 0 W/m2
03:01 45.1 °F /  7.3 °C 40.9 °F /  4.9 °C 29.35 in /  993.8 hPa West 10.0 mph /  16.1 km/h 15.0 mph /  24.1 km/h 85 % 0.00 in /  0 mm 0 W/m2
03:06 45.1 °F /  7.3 °C 40.9 °F /  4.9 °C 29.34 in /  993.5 hPa West 10.0 mph /  16.1 km/h 13.0 mph /  20.9 km/h 85 % 0.00 in /  0 mm 0 W/m2
03:09 45.0 °F /  7.2 °C 40.7 °F /  4.8 °C 29.34 in /  993.5 hPa West 9.0 mph /  14.5 km/h 14.0 mph /  22.5 km/h 85 % 0.00 in /  0 mm 0 W/m2
03:12 45.0 °F /  7.2 °C 40.7 °F /  4.8 °C 29.34 in /  993.5 hPa WSW 6.0 mph /  9.7 km/h 10.0 mph /  16.1 km/h 85 % 0.00 in /  0 mm 0 W/m2
03:15 45.0 °F /  7.2 °C 40.7 °F /  4.8 °C 29.34 in /  993.5 hPa WSW 6.0 mph /  9.7 km/h 8.0 mph /  12.9 km/h 85 % 0.00 in /  0 mm 0 W/m2
03:20 45.0 °F /  7.2 °C 40.7 °F /  4.8 °C 29.34 in /  993.5 hPa WSW 5.0 mph /  8 km/h 7.0 mph /  11.3 km/h 85 % 0.00 in /  0 mm 0 W/m2
03:22 45.0 °F /  7.2 °C 40.7 °F /  4.8 °C 29.34 in /  993.5 hPa SW 5.0 mph /  8 km/h 8.0 mph /  12.9 km/h 85 % 0.00 in /  0 mm 0 W/m2
03:27 45.0 °F /  7.2 °C 40.7 °F /  4.8 °C 29.34 in /  993.5 hPa SW 6.0 mph /  9.7 km/h 9.0 mph /  14.5 km/h 85 % 0.00 in /  0 mm 0 W/m2
03:32 45.0 °F /  7.2 °C 40.7 °F /  4.8 °C 29.34 in /  993.5 hPa SSW 5.0 mph /  8 km/h 7.0 mph /  11.3 km/h 85 % 0.00 in /  0 mm 0 W/m2
03:33 45.0 °F /  7.2 °C 40.7 °F /  4.8 °C 29.34 in /  993.5 hPa SSW 4.0 mph /  6.4 km/h 7.0 mph /  11.3 km/h 85 % 0.00 in /  0 mm 0 W/m2
03:36 45.0 °F /  7.2 °C 40.7 °F /  4.8 °C 29.34 in /  993.5 hPa SW 4.0 mph /  6.4 km/h 9.0 mph /  14.5 km/h 85 % 0.00 in /  0 mm 0 W/m2
03:38 44.8 °F /  7.1 °C 40.5 °F /  4.7 °C 29.35 in /  993.8 hPa WSW 5.0 mph /  8 km/h 9.0 mph /  14.5 km/h 85 % 0.00 in /  0 mm 0 W/m2
03:43 45.0 °F /  7.2 °C 40.7 °F /  4.8 °C 29.34 in /  993.5 hPa WSW 3.0 mph /  4.8 km/h 6.0 mph /  9.7 km/h 85 % 0.00 in /  0 mm 0 W/m2
03:45 45.0 °F /  7.2 °C 40.7 °F /  4.8 °C 29.34 in /  993.5 hPa WSW 5.0 mph /  8 km/h 9.0 mph /  14.5 km/h 85 % 0.00 in /  0 mm 0 W/m2
03:50 45.0 °F /  7.2 °C 40.7 °F /  4.8 °C 29.33 in /  993.1 hPa West 7.0 mph /  11.3 km/h 10.0 mph /  16.1 km/h 85 % 0.00 in /  0 mm 0 W/m2
03:51 45.0 °F /  7.2 °C 40.7 °F /  4.8 °C 29.33 in /  993.1 hPa West 7.0 mph /  11.3 km/h 10.0 mph /  16.1 km/h 85 % 0.00 in /  0 mm 0 W/m2
03:54 45.0 °F /  7.2 °C 40.4 °F /  4.7 °C 29.33 in /  993.1 hPa WSW 10.0 mph /  16.1 km/h 16.0 mph /  25.7 km/h 84 % 0.00 in /  0 mm 0 W/m2
03:57 45.0 °F /  7.2 °C 40.4 °F /  4.7 °C 29.33 in /  993.1 hPa West 9.0 mph /  14.5 km/h 15.0 mph /  24.1 km/h 84 % 0.00 in /  0 mm 0 W/m2
04:02 45.0 °F /  7.2 °C 40.4 °F /  4.7 °C 29.32 in /  992.8 hPa West 8.0 mph /  12.9 km/h 11.0 mph /  17.7 km/h 84 % 0.00 in /  0 mm 0 W/m2
04:05 45.0 °F /  7.2 °C 40.4 °F /  4.7 °C 29.33 in /  993.1 hPa West 9.0 mph /  14.5 km/h 14.0 mph /  22.5 km/h 84 % 0.00 in /  0 mm 0 W/m2
04:11 44.8 °F /  7.1 °C 40.2 °F /  4.6 °C 29.33 in /  993.1 hPa West 9.0 mph /  14.5 km/h 15.0 mph /  24.1 km/h 84 % 0.00 in /  0 mm 0 W/m2
04:13 44.8 °F /  7.1 °C 40.2 °F /  4.6 °C 29.33 in /  993.1 hPa WSW 10.0 mph /  16.1 km/h 15.0 mph /  24.1 km/h 84 % 0.00 in /  0 mm 0 W/m2
04:14 44.8 °F /  7.1 °C 40.2 °F /  4.6 °C 29.33 in /  993.1 hPa WSW 10.0 mph /  16.1 km/h 15.0 mph /  24.1 km/h 84 % 0.00 in /  0 mm 0 W/m2
04:15 44.8 °F /  7.1 °C 40.2 °F /  4.6 °C 29.33 in /  993.1 hPa WSW 10.0 mph /  16.1 km/h 15.0 mph /  24.1 km/h 84 % 0.00 in /  0 mm 0 W/m2
04:16 44.8 °F /  7.1 °C 40.2 °F /  4.6 °C 29.32 in /  992.8 hPa West 7.0 mph /  11.3 km/h 10.0 mph /  16.1 km/h 84 % 0.00 in /  0 mm 0 W/m2
04:17 44.8 °F /  7.1 °C 40.5 °F /  4.7 °C 29.32 in /  992.8 hPa WSW 7.0 mph /  11.3 km/h 11.0 mph /  17.7 km/h 85 % 0.00 in /  0 mm 0 W/m2
04:18 44.8 °F /  7.1 °C 40.5 °F /  4.7 °C 29.32 in /  992.8 hPa WSW 7.0 mph /  11.3 km/h 11.0 mph /  17.7 km/h 85 % 0.00 in /  0 mm 0 W/m2
04:20 44.8 °F /  7.1 °C 40.5 °F /  4.7 °C 29.32 in /  992.8 hPa WSW 7.0 mph /  11.3 km/h 11.0 mph /  17.7 km/h 85 % 0.00 in /  0 mm 0 W/m2
04:22 44.8 °F /  7.1 °C 40.5 °F /  4.7 °C 29.32 in /  992.8 hPa WSW 4.0 mph /  6.4 km/h 8.0 mph /  12.9 km/h 85 % 0.00 in /  0 mm 0 W/m2
04:23 44.8 °F /  7.1 °C 40.5 °F /  4.7 °C 29.32 in /  992.8 hPa SW 3.0 mph /  4.8 km/h 6.0 mph /  9.7 km/h 85 % 0.00 in /  0 mm 0 W/m2
04:25 44.8 °F /  7.1 °C 40.5 °F /  4.7 °C 29.32 in /  992.8 hPa SW 4.0 mph /  6.4 km/h 6.0 mph /  9.7 km/h 85 % 0.00 in /  0 mm 0 W/m2
04:28 44.8 °F /  7.1 °C 40.5 °F /  4.7 °C 29.32 in /  992.8 hPa SW 1.0 mph /  1.6 km/h 2.0 mph /  3.2 km/h 85 % 0.00 in /  0 mm 0 W/m2
04:33 44.8 °F /  7.1 °C 40.5 °F /  4.7 °C 29.33 in /  993.1 hPa SSW 1.0 mph /  1.6 km/h 4.0 mph /  6.4 km/h 85 % 0.00 in /  0 mm 0 W/m2
04:37 44.6 °F /  7 °C 40.4 °F /  4.7 °C 29.33 in /  993.1 hPa South 3.0 mph /  4.8 km/h 6.0 mph /  9.7 km/h 85 % 0.00 in /  0 mm 0 W/m2
04:40 44.6 °F /  7 °C 40.4 °F /  4.7 °C 29.33 in /  993.1 hPa South 1.0 mph /  1.6 km/h 5.0 mph /  8 km/h 85 % 0.00 in /  0 mm 0 W/m2
04:42 44.6 °F /  7 °C 40.4 °F /  4.7 °C 29.33 in /  993.1 hPa South 2.0 mph /  3.2 km/h 5.0 mph /  8 km/h 85 % 0.00 in /  0 mm 0 W/m2
04:43 44.6 °F /  7 °C 40.4 °F /  4.7 °C 29.33 in /  993.1 hPa South 3.0 mph /  4.8 km/h 6.0 mph /  9.7 km/h 85 % 0.00 in /  0 mm 0 W/m2
04:44 44.6 °F /  7 °C 40.4 °F /  4.7 °C 29.33 in /  993.1 hPa SSW 3.0 mph /  4.8 km/h 6.0 mph /  9.7 km/h 85 % 0.00 in /  0 mm 0 W/m2
04:48 44.6 °F /  7 °C 40.4 °F /  4.7 °C 29.32 in /  992.8 hPa SSW 3.0 mph /  4.8 km/h 7.0 mph /  11.3 km/h 85 % 0.00 in /  0 mm 0 W/m2
04:50 44.6 °F /  7 °C 40.4 °F /  4.7 °C 29.33 in /  993.1 hPa SSW 5.0 mph /  8 km/h 7.0 mph /  11.3 km/h 85 % 0.00 in /  0 mm 0 W/m2
04:52 44.8 °F /  7.1 °C 40.2 °F /  4.6 °C 29.32 in /  992.8 hPa SW 6.0 mph /  9.7 km/h 8.0 mph /  12.9 km/h 84 % 0.00 in /  0 mm 0 W/m2
04:57 44.8 °F /  7.1 °C 40.2 °F /  4.6 °C 29.32 in /  992.8 hPa WSW 5.0 mph /  8 km/h 7.0 mph /  11.3 km/h 84 % 0.00 in /  0 mm 0 W/m2
04:58 44.8 °F /  7.1 °C 40.2 °F /  4.6 °C 29.32 in /  992.8 hPa WSW 5.0 mph /  8 km/h 7.0 mph /  11.3 km/h 84 % 0.00 in /  0 mm 0 W/m2
05:03 44.8 °F /  7.1 °C 40.2 °F /  4.6 °C 29.32 in /  992.8 hPa WSW 8.0 mph /  12.9 km/h 10.0 mph /  16.1 km/h 84 % 0.00 in /  0 mm 0 W/m2
05:04 44.8 °F /  7.1 °C 40.2 °F /  4.6 °C 29.32 in /  992.8 hPa WSW 8.0 mph /  12.9 km/h 10.0 mph /  16.1 km/h 84 % 0.00 in /  0 mm 0 W/m2
05:09 44.8 °F /  7.1 °C 40.2 °F /  4.6 °C 29.31 in /  992.4 hPa West 7.0 mph /  11.3 km/h 9.0 mph /  14.5 km/h 84 % 0.00 in /  0 mm 0 W/m2
05:14 44.8 °F /  7.1 °C 40.2 °F /  4.6 °C 29.31 in /  992.4 hPa WSW 6.0 mph /  9.7 km/h 10.0 mph /  16.1 km/h 84 % 0.00 in /  0 mm 0 W/m2
05:15 44.8 °F /  7.1 °C 40.2 °F /  4.6 °C 29.31 in /  992.4 hPa WSW 6.0 mph /  9.7 km/h 8.0 mph /  12.9 km/h 84 % 0.00 in /  0 mm 0 W/m2
05:19 44.8 °F /  7.1 °C 40.2 °F /  4.6 °C 29.31 in /  992.4 hPa West 5.0 mph /  8 km/h 7.0 mph /  11.3 km/h 84 % 0.00 in /  0 mm 0 W/m2
05:23 44.8 °F /  7.1 °C 40.2 °F /  4.6 °C 29.31 in /  992.4 hPa WSW 4.0 mph /  6.4 km/h 6.0 mph /  9.7 km/h 84 % 0.00 in /  0 mm 0 W/m2
05:28 44.8 °F /  7.1 °C 40.2 °F /  4.6 °C 29.31 in /  992.4 hPa SW 5.0 mph /  8 km/h 7.0 mph /  11.3 km/h 84 % 0.00 in /  0 mm 0 W/m2
05:30 44.8 °F /  7.1 °C 40.2 °F /  4.6 °C 29.31 in /  992.4 hPa SW 5.0 mph /  8 km/h 8.0 mph /  12.9 km/h 84 % 0.00 in /  0 mm 0 W/m2
05:33 44.6 °F /  7 °C 40.1 °F /  4.5 °C 29.31 in /  992.4 hPa SSW 2.0 mph /  3.2 km/h 5.0 mph /  8 km/h 84 % 0.00 in /  0 mm 0 W/m2
05:38 44.6 °F /  7 °C 40.1 °F /  4.5 °C 29.31 in /  992.4 hPa SSW 4.0 mph /  6.4 km/h 5.0 mph /  8 km/h 84 % 0.00 in /  0 mm 0 W/m2
05:42 44.6 °F /  7 °C 40.4 °F /  4.7 °C 29.30 in /  992.1 hPa SSW 4.0 mph /  6.4 km/h 7.0 mph /  11.3 km/h 85 % 0.00 in /  0 mm 0 W/m2
05:47 44.4 °F /  6.9 °C 40.2 °F /  4.6 °C 29.30 in /  992.1 hPa SSW 4.0 mph /  6.4 km/h 8.0 mph /  12.9 km/h 85 % 0.00 in /  0 mm 0 W/m2
05:48 44.4 °F /  6.9 °C 40.2 °F /  4.6 °C 29.30 in /  992.1 hPa SSW 5.0 mph /  8 km/h 8.0 mph /  12.9 km/h 85 % 0.00 in /  0 mm 0 W/m2
05:53 44.4 °F /  6.9 °C 40.5 °F /  4.7 °C 29.29 in /  991.8 hPa SSW 6.0 mph /  9.7 km/h 10.0 mph /  16.1 km/h 86 % 0.00 in /  0 mm 0 W/m2
05:57 44.2 °F /  6.8 °C 40.3 °F /  4.6 °C 29.29 in /  991.8 hPa SW 5.0 mph /  8 km/h 9.0 mph /  14.5 km/h 86 % 0.00 in /  0 mm 0 W/m2
06:01 44.2 °F /  6.8 °C 40.3 °F /  4.6 °C 29.29 in /  991.8 hPa SSW 3.0 mph /  4.8 km/h 6.0 mph /  9.7 km/h 86 % 0.00 in /  0 mm 0 W/m2
06:06 44.2 °F /  6.8 °C 40.6 °F /  4.8 °C 29.29 in /  991.8 hPa SSW 2.0 mph /  3.2 km/h 8.0 mph /  12.9 km/h 87 % 0.00 in /  0 mm 0 W/m2
06:09 44.1 °F /  6.7 °C 40.4 °F /  4.7 °C 29.29 in /  991.8 hPa South 3.0 mph /  4.8 km/h 6.0 mph /  9.7 km/h 87 % 0.00 in /  0 mm 0 W/m2
06:14 44.1 °F /  6.7 °C 40.4 °F /  4.7 °C 29.28 in /  991.4 hPa South 4.0 mph /  6.4 km/h 6.0 mph /  9.7 km/h 87 % 0.00 in /  0 mm 0 W/m2
06:20 43.9 °F /  6.6 °C 40.6 °F /  4.8 °C 29.27 in /  991.1 hPa SSE 5.0 mph /  8 km/h 10.0 mph /  16.1 km/h 88 % 0.00 in /  0 mm 0 W/m2
06:21 43.9 °F /  6.6 °C 40.6 °F /  4.8 °C 29.27 in /  991.1 hPa SSE 5.0 mph /  8 km/h 8.0 mph /  12.9 km/h 88 % 0.00 in /  0 mm 0 W/m2
06:22 43.9 °F /  6.6 °C 40.6 °F /  4.8 °C 29.27 in /  991.1 hPa SSE 4.0 mph /  6.4 km/h 8.0 mph /  12.9 km/h 88 % 0.00 in /  0 mm 0 W/m2
06:26 43.7 °F /  6.5 °C 40.7 °F /  4.8 °C 29.27 in /  991.1 hPa SE 4.0 mph /  6.4 km/h 9.0 mph /  14.5 km/h 89 % 0.00 in /  0 mm 0 W/m2
06:31 43.5 °F /  6.4 °C 40.5 °F /  4.7 °C 29.26 in /  990.7 hPa SSE 5.0 mph /  8 km/h 8.0 mph /  12.9 km/h 89 % 0.00 in /  0 mm 0 W/m2
06:32 43.5 °F /  6.4 °C 40.5 °F /  4.7 °C 29.26 in /  990.7 hPa SSE 4.0 mph /  6.4 km/h 8.0 mph /  12.9 km/h 89 % 0.00 in /  0 mm 0 W/m2
06:37 43.3 °F /  6.3 °C 40.3 °F /  4.6 °C 29.26 in /  990.7 hPa South 4.0 mph /  6.4 km/h 8.0 mph /  12.9 km/h 89 % 0.00 in /  0 mm 0 W/m2
06:38 43.3 °F /  6.3 °C 40.6 °F /  4.8 °C 29.26 in /  990.7 hPa South 4.0 mph /  6.4 km/h 9.0 mph /  14.5 km/h 90 % 0.00 in /  0 mm 0 W/m2
06:43 43.3 °F /  6.3 °C 40.6 °F /  4.8 °C 29.25 in /  990.4 hPa SSE 4.0 mph /  6.4 km/h 6.0 mph /  9.7 km/h 90 % 0.00 in /  0 mm 0 W/m2
06:45 43.3 °F /  6.3 °C 40.6 °F /  4.8 °C 29.25 in /  990.4 hPa SSE 3.0 mph /  4.8 km/h 6.0 mph /  9.7 km/h 90 % 0.00 in /  0 mm 0 W/m2
06:49 43.3 °F /  6.3 °C 40.6 °F /  4.8 °C 29.25 in /  990.4 hPa SSE 5.0 mph /  8 km/h 7.0 mph /  11.3 km/h 90 % 0.00 in /  0 mm 0 W/m2
06:50 43.2 °F /  6.2 °C 40.4 °F /  4.7 °C 29.25 in /  990.4 hPa SSE 5.0 mph /  8 km/h 7.0 mph /  11.3 km/h 90 % 0.00 in /  0 mm 0 W/m2
06:54 43.2 °F /  6.2 °C 40.4 °F /  4.7 °C 29.25 in /  990.4 hPa SSE 6.0 mph /  9.7 km/h 8.0 mph /  12.9 km/h 90 % 0.00 in /  0 mm 0 W/m2
06:56 43.2 °F /  6.2 °C 40.4 °F /  4.7 °C 29.24 in /  990.1 hPa SSE 6.0 mph /  9.7 km/h 8.0 mph /  12.9 km/h 90 % 0.00 in /  0 mm 0 W/m2
07:01 43.2 °F /  6.2 °C 40.4 °F /  4.7 °C 29.24 in /  990.1 hPa SSE 5.0 mph /  8 km/h 8.0 mph /  12.9 km/h 90 % 0.00 in /  0 mm 0 W/m2
07:04 43.2 °F /  6.2 °C 40.4 °F /  4.7 °C 29.24 in /  990.1 hPa SSE 5.0 mph /  8 km/h 7.0 mph /  11.3 km/h 90 % 0.00 in /  0 mm 0 W/m2
07:07 43.0 °F /  6.1 °C 40.5 °F /  4.7 °C 29.24 in /  990.1 hPa SSE 6.0 mph /  9.7 km/h 8.0 mph /  12.9 km/h 91 % 0.00 in /  0 mm 0 W/m2
07:09 43.0 °F /  6.1 °C 40.5 °F /  4.7 °C 29.24 in /  990.1 hPa SSE 7.0 mph /  11.3 km/h 10.0 mph /  16.1 km/h 91 % 0.00 in /  0 mm 0 W/m2
07:13 43.0 °F /  6.1 °C 40.5 °F /  4.7 °C 29.24 in /  990.1 hPa SSE 7.0 mph /  11.3 km/h 10.0 mph /  16.1 km/h 91 % 0.00 in /  0 mm 0 W/m2
07:15 43.0 °F /  6.1 °C 40.5 °F /  4.7 °C 29.24 in /  990.1 hPa SSE 5.0 mph /  8 km/h 8.0 mph /  12.9 km/h 91 % 0.00 in /  0 mm 0 W/m2
07:18 43.0 °F /  6.1 °C 40.5 °F /  4.7 °C 29.23 in /  989.7 hPa SSE 4.0 mph /  6.4 km/h 8.0 mph /  12.9 km/h 91 % 0.00 in /  0 mm 0 W/m2
07:19 43.0 °F /  6.1 °C 40.5 °F /  4.7 °C 29.23 in /  989.7 hPa SSE 5.0 mph /  8 km/h 8.0 mph /  12.9 km/h 91 % 0.00 in /  0 mm 0 W/m2
07:20 43.0 °F /  6.1 °C 40.5 °F /  4.7 °C 29.23 in /  989.7 hPa SSE 6.0 mph /  9.7 km/h 8.0 mph /  12.9 km/h 91 % 0.00 in /  0 mm 0 W/m2
07:21 43.0 °F /  6.1 °C 40.5 °F /  4.7 °C 29.23 in /  989.7 hPa SSE 6.0 mph /  9.7 km/h 8.0 mph /  12.9 km/h 91 % 0.00 in /  0 mm 0 W/m2
07:26 42.8 °F /  6 °C 40.4 °F /  4.7 °C 29.23 in /  989.7 hPa South 5.0 mph /  8 km/h 11.0 mph /  17.7 km/h 91 % 0.00 in /  0 mm 0 W/m2
07:31 42.8 °F /  6 °C 40.4 °F /  4.7 °C 29.22 in /  989.4 hPa SSE 7.0 mph /  11.3 km/h 10.0 mph /  16.1 km/h 91 % 0.00 in /  0 mm 0 W/m2
07:33 42.8 °F /  6 °C 40.4 °F /  4.7 °C 29.22 in /  989.4 hPa SSE 7.0 mph /  11.3 km/h 10.0 mph /  16.1 km/h 91 % 0.00 in /  0 mm 0 W/m2
07:38 42.6 °F /  5.9 °C 40.5 °F /  4.7 °C 29.22 in /  989.4 hPa SSE 6.0 mph /  9.7 km/h 12.0 mph /  19.3 km/h 92 % 0.00 in /  0 mm 0 W/m2
07:40 42.6 °F /  5.9 °C 40.5 °F /  4.7 °C 29.23 in /  989.7 hPa South 6.0 mph /  9.7 km/h 12.0 mph /  19.3 km/h 92 % 0.00 in /  0 mm 0 W/m2
07:45 42.4 °F /  5.8 °C 40.3 °F /  4.6 °C 29.22 in /  989.4 hPa South 6.0 mph /  9.7 km/h 11.0 mph /  17.7 km/h 92 % 0.00 in /  0 mm 0 W/m2
07:46 42.4 °F /  5.8 °C 40.3 °F /  4.6 °C 29.22 in /  989.4 hPa South 6.0 mph /  9.7 km/h 11.0 mph /  17.7 km/h 92 % 0.00 in /  0 mm 0 W/m2
07:50 42.4 °F /  5.8 °C 40.3 °F /  4.6 °C 29.22 in /  989.4 hPa SSE 5.0 mph /  8 km/h 9.0 mph /  14.5 km/h 92 % 0.00 in /  0 mm 0 W/m2
07:53 42.4 °F /  5.8 °C 40.3 °F /  4.6 °C 29.22 in /  989.4 hPa South 5.0 mph /  8 km/h 12.0 mph /  19.3 km/h 92 % 0.00 in /  0 mm 0 W/m2
07:56 42.4 °F /  5.8 °C 40.3 °F /  4.6 °C 29.22 in /  989.4 hPa SSE 6.0 mph /  9.7 km/h 8.0 mph /  12.9 km/h 92 % 0.00 in /  0 mm 0 W/m2
08:01 42.3 °F /  5.7 °C 40.4 °F /  4.7 °C 29.22 in /  989.4 hPa South 6.0 mph /  9.7 km/h 9.0 mph /  14.5 km/h 93 % 0.01 in /  0.25 mm 0 W/m2
08:04 42.3 °F /  5.7 °C 40.1 °F /  4.5 °C 29.22 in /  989.4 hPa South 6.0 mph /  9.7 km/h 9.0 mph /  14.5 km/h 92 % 0.01 in /  0.25 mm 0 W/m2
08:07 42.3 °F /  5.7 °C 40.4 °F /  4.7 °C 29.21 in /  989.1 hPa South 4.0 mph /  6.4 km/h 8.0 mph /  12.9 km/h 93 % 0.01 in /  0.25 mm 0 W/m2
08:08 42.3 °F /  5.7 °C 40.4 °F /  4.7 °C 29.21 in /  989.1 hPa South 3.0 mph /  4.8 km/h 8.0 mph /  12.9 km/h 93 % 0.01 in /  0.25 mm 0 W/m2
08:11 42.3 °F /  5.7 °C 40.4 °F /  4.7 °C 29.21 in /  989.1 hPa South 4.0 mph /  6.4 km/h 7.0 mph /  11.3 km/h 93 % 0.01 in /  0.25 mm 0 W/m2
08:13 42.3 °F /  5.7 °C 40.4 °F /  4.7 °C 29.21 in /  989.1 hPa SSW 3.0 mph /  4.8 km/h 7.0 mph /  11.3 km/h 93 % 0.01 in /  0.25 mm 0 W/m2
08:19 42.1 °F /  5.6 °C 40.2 °F /  4.6 °C 29.20 in /  988.7 hPa South 7.0 mph /  11.3 km/h 12.0 mph /  19.3 km/h 93 % 0.01 in /  0.25 mm 0 W/m2
08:23 42.1 °F /  5.6 °C 40.2 °F /  4.6 °C 29.20 in /  988.7 hPa South 6.0 mph /  9.7 km/h 8.0 mph /  12.9 km/h 93 % 0.01 in /  0.25 mm 0 W/m2
08:26 42.1 °F /  5.6 °C 40.2 °F /  4.6 °C 29.20 in /  988.7 hPa SSE 6.0 mph /  9.7 km/h 8.0 mph /  12.9 km/h 93 % 0.01 in /  0.25 mm 0 W/m2
08:30 41.9 °F /  5.5 °C 40.0 °F /  4.4 °C 29.20 in /  988.7 hPa SSE 6.0 mph /  9.7 km/h 9.0 mph /  14.5 km/h 93 % 0.01 in /  0.25 mm 0 W/m2
08:31 41.9 °F /  5.5 °C 40.0 °F /  4.4 °C 29.20 in /  988.7 hPa SSE 6.0 mph /  9.7 km/h 9.0 mph /  14.5 km/h 93 % 0.01 in /  0.25 mm 0 W/m2
08:36 41.7 °F /  5.4 °C 39.8 °F /  4.3 °C 29.20 in /  988.7 hPa SSE 7.0 mph /  11.3 km/h 11.0 mph /  17.7 km/h 93 % 0.01 in /  0.25 mm 0 W/m2
08:42 41.7 °F /  5.4 °C 40.1 °F /  4.5 °C 29.19 in /  988.4 hPa SSE 8.0 mph /  12.9 km/h 11.0 mph /  17.7 km/h 94 % 0.01 in /  0.25 mm 0 W/m2
08:46 41.5 °F /  5.3 °C 39.9 °F /  4.4 °C 29.19 in /  988.4 hPa SE 6.0 mph /  9.7 km/h 9.0 mph /  14.5 km/h 94 % 0.01 in /  0.25 mm 0 W/m2
08:51 41.5 °F /  5.3 °C 39.9 °F /  4.4 °C 29.18 in /  988 hPa SSE 5.0 mph /  8 km/h 7.0 mph /  11.3 km/h 94 % 0.02 in /  0.51 mm 5 W/m2
08:55 41.5 °F /  5.3 °C 39.9 °F /  4.4 °C 29.18 in /  988 hPa South 4.0 mph /  6.4 km/h 7.0 mph /  11.3 km/h 94 % 0.02 in /  0.51 mm 0 W/m2
08:56 41.5 °F /  5.3 °C 39.9 °F /  4.4 °C 29.18 in /  988 hPa South 4.0 mph /  6.4 km/h 7.0 mph /  11.3 km/h 94 % 0.02 in /  0.51 mm 0 W/m2
09:00 41.5 °F /  5.3 °C 39.9 °F /  4.4 °C 29.18 in /  988 hPa South 6.0 mph /  9.7 km/h 12.0 mph /  19.3 km/h 94 % 0.02 in /  0.51 mm 0 W/m2
09:03 41.4 °F /  5.2 °C 39.8 °F /  4.3 °C 29.18 in /  988 hPa South 5.0 mph /  8 km/h 8.0 mph /  12.9 km/h 94 % 0.01 in /  0.25 mm 5 W/m2
09:05 41.4 °F /  5.2 °C 39.8 °F /  4.3 °C 29.18 in /  988 hPa SSE 6.0 mph /  9.7 km/h 9.0 mph /  14.5 km/h 94 % 0.01 in /  0.25 mm 7 W/m2
09:08 41.4 °F /  5.2 °C 39.8 °F /  4.3 °C 29.18 in /  988 hPa SSE 5.0 mph /  8 km/h 10.0 mph /  16.1 km/h 94 % 0.01 in /  0.25 mm 7 W/m2
09:13 41.2 °F /  5.1 °C 39.6 °F /  4.2 °C 29.18 in /  988 hPa SSE 5.0 mph /  8 km/h 8.0 mph /  12.9 km/h 94 % 0.01 in /  0.25 mm 7 W/m2
09:15 41.2 °F /  5.1 °C 39.6 °F /  4.2 °C 29.18 in /  988 hPa SE 5.0 mph /  8 km/h 9.0 mph /  14.5 km/h 94 % 0.01 in /  0.25 mm 5 W/m2
09:21 41.2 °F /  5.1 °C 39.6 °F /  4.2 °C 29.18 in /  988 hPa SSE 5.0 mph /  8 km/h 9.0 mph /  14.5 km/h 94 % 0.01 in /  0.25 mm 5 W/m2
09:26 41.2 °F /  5.1 °C 39.6 °F /  4.2 °C 29.17 in /  987.7 hPa SSE 7.0 mph /  11.3 km/h 11.0 mph /  17.7 km/h 94 % 0.01 in /  0.25 mm 0 W/m2
09:29 41.2 °F /  5.1 °C 39.6 °F /  4.2 °C 29.17 in /  987.7 hPa SE 8.0 mph /  12.9 km/h 13.0 mph /  20.9 km/h 94 % 0.01 in /  0.25 mm 5 W/m2
09:32 41.2 °F /  5.1 °C 39.6 °F /  4.2 °C 29.16 in /  987.4 hPa SE 8.0 mph /  12.9 km/h 11.0 mph /  17.7 km/h 94 % 0.01 in /  0.25 mm 5 W/m2
09:36 41.2 °F /  5.1 °C 39.6 °F /  4.2 °C 29.16 in /  987.4 hPa SE 8.0 mph /  12.9 km/h 11.0 mph /  17.7 km/h 94 % 0.02 in /  0.51 mm 5 W/m2
09:37 41.2 °F /  5.1 °C 39.9 °F /  4.4 °C 29.16 in /  987.4 hPa SE 8.0 mph /  12.9 km/h 13.0 mph /  20.9 km/h 95 % 0.02 in /  0.51 mm 5 W/m2
09:42 41.2 °F /  5.1 °C 39.9 °F /  4.4 °C 29.16 in /  987.4 hPa SE 7.0 mph /  11.3 km/h 10.0 mph /  16.1 km/h 95 % 0.02 in /  0.51 mm 7 W/m2
09:47 41.2 °F /  5.1 °C 39.9 °F /  4.4 °C 29.15 in /  987 hPa SE 8.0 mph /  12.9 km/h 11.0 mph /  17.7 km/h 95 % 0.02 in /  0.51 mm 5 W/m2
09:48 41.2 °F /  5.1 °C 39.9 °F /  4.4 °C 29.15 in /  987 hPa SE 7.0 mph /  11.3 km/h 11.0 mph /  17.7 km/h 95 % 0.02 in /  0.51 mm 5 W/m2
09:49 41.2 °F /  5.1 °C 39.9 °F /  4.4 °C 29.15 in /  987 hPa SE 7.0 mph /  11.3 km/h 10.0 mph /  16.1 km/h 95 % 0.02 in /  0.51 mm 5 W/m2
09:54 41.2 °F /  5.1 °C 39.9 °F /  4.4 °C 29.15 in /  987 hPa SE 9.0 mph /  14.5 km/h 13.0 mph /  20.9 km/h 95 % 0.02 in /  0.51 mm 11 W/m2
09:56 41.2 °F /  5.1 °C 39.9 °F /  4.4 °C 29.15 in /  987 hPa SE 9.0 mph /  14.5 km/h 13.0 mph /  20.9 km/h 95 % 0.02 in /  0.51 mm 9 W/m2
09:58 41.2 °F /  5.1 °C 39.9 °F /  4.4 °C 29.15 in /  987 hPa SE 9.0 mph /  14.5 km/h 14.0 mph /  22.5 km/h 95 % 0.02 in /  0.51 mm 7 W/m2
10:01 41.2 °F /  5.1 °C 39.9 °F /  4.4 °C 29.14 in /  986.7 hPa SE 9.0 mph /  14.5 km/h 12.0 mph /  19.3 km/h 95 % 0.02 in /  0.51 mm 14 W/m2
10:06 41.2 °F /  5.1 °C 39.9 °F /  4.4 °C 29.14 in /  986.7 hPa SE 9.0 mph /  14.5 km/h 14.0 mph /  22.5 km/h 95 % 0.02 in /  0.51 mm 14 W/m2
10:07 41.2 °F /  5.1 °C 39.9 °F /  4.4 °C 29.13 in /  986.3 hPa SE 9.0 mph /  14.5 km/h 14.0 mph /  22.5 km/h 95 % 0.02 in /  0.51 mm 12 W/m2
10:12 41.2 °F /  5.1 °C 39.9 °F /  4.4 °C 29.13 in /  986.3 hPa SE 10.0 mph /  16.1 km/h 15.0 mph /  24.1 km/h 95 % 0.02 in /  0.51 mm 21 W/m2
10:17 41.2 °F /  5.1 °C 39.9 °F /  4.4 °C 29.13 in /  986.3 hPa SSE 9.0 mph /  14.5 km/h 16.0 mph /  25.7 km/h 95 % 0.02 in /  0.51 mm 19 W/m2
10:18 41.2 °F /  5.1 °C 39.9 °F /  4.4 °C 29.13 in /  986.3 hPa SSE 9.0 mph /  14.5 km/h 16.0 mph /  25.7 km/h 95 % 0.02 in /  0.51 mm 18 W/m2
10:23 41.2 °F /  5.1 °C 39.9 °F /  4.4 °C 29.12 in /  986 hPa SSE 7.0 mph /  11.3 km/h 11.0 mph /  17.7 km/h 95 % 0.02 in /  0.51 mm 14 W/m2
10:28 41.2 °F /  5.1 °C 39.9 °F /  4.4 °C 29.12 in /  986 hPa SSE 6.0 mph /  9.7 km/h 9.0 mph /  14.5 km/h 95 % 0.02 in /  0.51 mm 19 W/m2
10:31 41.2 °F /  5.1 °C 39.9 °F /  4.4 °C 29.12 in /  986 hPa SSE 7.0 mph /  11.3 km/h 10.0 mph /  16.1 km/h 95 % 0.02 in /  0.51 mm 18 W/m2
10:33 41.4 °F /  5.2 °C 40.0 °F /  4.4 °C 29.12 in /  986 hPa SSE 7.0 mph /  11.3 km/h 10.0 mph /  16.1 km/h 95 % 0.02 in /  0.51 mm 19 W/m2
10:38 41.4 °F /  5.2 °C 40.3 °F /  4.6 °C 29.11 in /  985.7 hPa SSE 8.0 mph /  12.9 km/h 11.0 mph /  17.7 km/h 96 % 0.02 in /  0.51 mm 44 W/m2
10:39 41.4 °F /  5.2 °C 40.3 °F /  4.6 °C 29.11 in /  985.7 hPa SSE 8.0 mph /  12.9 km/h 11.0 mph /  17.7 km/h 96 % 0.02 in /  0.51 mm 51 W/m2
10:44 41.4 °F /  5.2 °C 40.3 °F /  4.6 °C 29.11 in /  985.7 hPa SE 5.0 mph /  8 km/h 9.0 mph /  14.5 km/h 96 % 0.02 in /  0.51 mm 33 W/m2
10:47 41.4 °F /  5.2 °C 40.3 °F /  4.6 °C 29.11 in /  985.7 hPa South 5.0 mph /  8 km/h 14.0 mph /  22.5 km/h 96 % 0.02 in /  0.51 mm 28 W/m2
10:51 41.5 °F /  5.3 °C 40.5 °F /  4.7 °C 29.10 in /  985.3 hPa SSW 2.0 mph /  3.2 km/h 7.0 mph /  11.3 km/h 96 % 0.02 in /  0.51 mm 42 W/m2
10:53 41.5 °F /  5.3 °C 40.5 °F /  4.7 °C 29.10 in /  985.3 hPa South 6.0 mph /  9.7 km/h 15.0 mph /  24.1 km/h 96 % 0.02 in /  0.51 mm 42 W/m2
10:58 41.5 °F /  5.3 °C 40.5 °F /  4.7 °C 29.09 in /  985 hPa SSE 6.0 mph /  9.7 km/h 11.0 mph /  17.7 km/h 96 % 0.02 in /  0.51 mm 28 W/m2
11:02 41.7 °F /  5.4 °C 40.7 °F /  4.8 °C 29.09 in /  985 hPa SW 7.0 mph /  11.3 km/h 13.0 mph /  20.9 km/h 96 % 0.02 in /  0.51 mm 97 W/m2
11:07 41.9 °F /  5.5 °C 40.8 °F /  4.9 °C 29.09 in /  985 hPa South 7.0 mph /  11.3 km/h 11.0 mph /  17.7 km/h 96 % 0.02 in /  0.51 mm 90 W/m2
11:09 41.9 °F /  5.5 °C 40.8 °F /  4.9 °C 29.09 in /  985 hPa South 6.0 mph /  9.7 km/h 11.0 mph /  17.7 km/h 96 % 0.02 in /  0.51 mm 107 W/m2
11:14 42.3 °F /  5.7 °C 41.2 °F /  5.1 °C 29.08 in /  984.6 hPa SSW 4.0 mph /  6.4 km/h 8.0 mph /  12.9 km/h 96 % 0.02 in /  0.51 mm 188 W/m2
11:19 42.6 °F /  5.9 °C 41.6 °F /  5.3 °C 29.07 in /  984.3 hPa South 4.0 mph /  6.4 km/h 6.0 mph /  9.7 km/h 96 % 0.02 in /  0.51 mm 185 W/m2
11:21 42.8 °F /  6 °C 41.7 °F /  5.4 °C 29.07 in /  984.3 hPa SSW 6.0 mph /  9.7 km/h 13.0 mph /  20.9 km/h 96 % 0.01 in /  0.25 mm 274 W/m2
11:26 43.2 °F /  6.2 °C 42.1 °F /  5.6 °C 29.06 in /  984 hPa South 6.0 mph /  9.7 km/h 8.0 mph /  12.9 km/h 96 % 0.01 in /  0.25 mm 232 W/m2
11:30 43.3 °F /  6.3 °C 42.3 °F /  5.7 °C 29.06 in /  984 hPa SSW 6.0 mph /  9.7 km/h 9.0 mph /  14.5 km/h 96 % 0.01 in /  0.25 mm 234 W/m2
11:34 43.3 °F /  6.3 °C 42.3 °F /  5.7 °C 29.06 in /  984 hPa SSW 6.0 mph /  9.7 km/h 10.0 mph /  16.1 km/h 96 % 0.00 in /  0 mm 227 W/m2
11:39 43.5 °F /  6.4 °C 42.5 °F /  5.8 °C 29.06 in /  984 hPa SSW 7.0 mph /  11.3 km/h 11.0 mph /  17.7 km/h 96 % 0.00 in /  0 mm 237 W/m2
11:44 43.7 °F /  6.5 °C 42.6 °F /  5.9 °C 29.05 in /  983.6 hPa SSW 6.0 mph /  9.7 km/h 11.0 mph /  17.7 km/h 96 % 0.00 in /  0 mm 153 W/m2
11:49 43.7 °F /  6.5 °C 42.6 °F /  5.9 °C 29.05 in /  983.6 hPa SW 5.0 mph /  8 km/h 8.0 mph /  12.9 km/h 96 % 0.00 in /  0 mm 142 W/m2
11:54 43.9 °F /  6.6 °C 42.8 °F /  6 °C 29.05 in /  983.6 hPa SSW 6.0 mph /  9.7 km/h 10.0 mph /  16.1 km/h 96 % 0.00 in /  0 mm 132 W/m2
11:57 43.9 °F /  6.6 °C 42.8 °F /  6 °C 29.04 in /  983.3 hPa SSW 7.0 mph /  11.3 km/h 11.0 mph /  17.7 km/h 96 % 0.00 in /  0 mm 107 W/m2
12:02 43.9 °F /  6.6 °C 42.8 °F /  6 °C 29.04 in /  983.3 hPa SW 7.0 mph /  11.3 km/h 10.0 mph /  16.1 km/h 96 % 0.00 in /  0 mm 118 W/m2
12:06 44.1 °F /  6.7 °C 43.0 °F /  6.1 °C 29.03 in /  983 hPa SW 7.0 mph /  11.3 km/h 10.0 mph /  16.1 km/h 96 % 0.00 in /  0 mm 134 W/m2
12:11 44.4 °F /  6.9 °C 43.4 °F /  6.3 °C 29.03 in /  983 hPa WSW 8.0 mph /  12.9 km/h 12.0 mph /  19.3 km/h 96 % 0.00 in /  0 mm 230 W/m2
12:12 44.4 °F /  6.9 °C 43.4 °F /  6.3 °C 29.03 in /  983 hPa WSW 8.0 mph /  12.9 km/h 12.0 mph /  19.3 km/h 96 % 0.00 in /  0 mm 192 W/m2
12:17 45.1 °F /  7.3 °C 44.1 °F /  6.7 °C 29.03 in /  983 hPa WSW 10.0 mph /  16.1 km/h 15.0 mph /  24.1 km/h 96 % 0.00 in /  0 mm 220 W/m2
12:21 45.7 °F /  7.6 °C 44.6 °F /  7 °C 29.03 in /  983 hPa WSW 9.0 mph /  14.5 km/h 13.0 mph /  20.9 km/h 96 % 0.00 in /  0 mm 223 W/m2
12:22 45.9 °F /  7.7 °C 44.8 °F /  7.1 °C 29.03 in /  983 hPa WSW 8.0 mph /  12.9 km/h 13.0 mph /  20.9 km/h 96 % 0.00 in /  0 mm 216 W/m2
12:27 46.4 °F /  8 °C 45.3 °F /  7.4 °C 29.02 in /  982.6 hPa WSW 8.0 mph /  12.9 km/h 11.0 mph /  17.7 km/h 96 % 0.00 in /  0 mm 213 W/m2
12:28 46.6 °F /  8.1 °C 45.5 °F /  7.5 °C 29.02 in /  982.6 hPa WSW 8.0 mph /  12.9 km/h 11.0 mph /  17.7 km/h 96 % 0.00 in /  0 mm 218 W/m2
12:33 46.9 °F /  8.3 °C 45.6 °F /  7.6 °C 29.02 in /  982.6 hPa WSW 7.0 mph /  11.3 km/h 12.0 mph /  19.3 km/h 95 % 0.00 in /  0 mm 220 W/m2
12:37 47.5 °F /  8.6 °C 46.1 °F /  7.8 °C 29.02 in /  982.6 hPa West 5.0 mph /  8 km/h 9.0 mph /  14.5 km/h 95 % 0.00 in /  0 mm 225 W/m2
12:42 48.0 °F /  8.9 °C 46.4 °F /  8 °C 29.02 in /  982.6 hPa WSW 7.0 mph /  11.3 km/h 19.0 mph /  30.6 km/h 94 % 0.00 in /  0 mm 248 W/m2
12:44 48.2 °F /  9 °C 46.6 °F /  8.1 °C 29.02 in /  982.6 hPa WSW 11.0 mph /  17.7 km/h 19.0 mph /  30.6 km/h 94 % 0.00 in /  0 mm 248 W/m2
12:48 48.7 °F /  9.3 °C 46.5 °F /  8.1 °C 29.02 in /  982.6 hPa WSW 11.0 mph /  17.7 km/h 18.0 mph /  29 km/h 92 % 0.00 in /  0 mm 250 W/m2
12:51 49.1 °F /  9.5 °C 46.6 °F /  8.1 °C 29.01 in /  982.3 hPa WSW 10.0 mph /  16.1 km/h 15.0 mph /  24.1 km/h 91 % 0.00 in /  0 mm 274 W/m2
12:55 49.6 °F /  9.8 °C 46.8 °F /  8.2 °C 29.02 in /  982.6 hPa WSW 10.0 mph /  16.1 km/h 18.0 mph /  29 km/h 90 % 0.00 in /  0 mm 223 W/m2
12:57 49.8 °F /  9.9 °C 46.7 °F /  8.2 °C 29.01 in /  982.3 hPa WSW 12.0 mph /  19.3 km/h 18.0 mph /  29 km/h 89 % 0.00 in /  0 mm 214 W/m2
13:02 50.2 °F /  10.1 °C 46.8 °F /  8.2 °C 29.01 in /  982.3 hPa WSW 10.0 mph /  16.1 km/h 19.0 mph /  30.6 km/h 88 % 0.00 in /  0 mm 211 W/m2
13:04 50.2 °F /  10.1 °C 46.5 °F /  8.1 °C 29.01 in /  982.3 hPa WSW 11.0 mph /  17.7 km/h 18.0 mph /  29 km/h 87 % 0.00 in /  0 mm 183 W/m2
13:09 50.4 °F /  10.2 °C 46.3 °F /  7.9 °C 29.01 in /  982.3 hPa WSW 15.0 mph /  24.1 km/h 23.0 mph /  37 km/h 86 % 0.00 in /  0 mm 167 W/m2
13:11 50.4 °F /  10.2 °C 46.3 °F /  7.9 °C 29.01 in /  982.3 hPa WSW 14.0 mph /  22.5 km/h 22.0 mph /  35.4 km/h 86 % 0.00 in /  0 mm 97 W/m2
13:13 50.2 °F /  10.1 °C 45.8 °F /  7.7 °C 29.02 in /  982.6 hPa WSW 15.0 mph /  24.1 km/h 25.0 mph /  40.2 km/h 85 % 0.00 in /  0 mm 139 W/m2
13:16 50.2 °F /  10.1 °C 45.8 °F /  7.7 °C 29.02 in /  982.6 hPa WSW 13.0 mph /  20.9 km/h 23.0 mph /  37 km/h 85 % 0.00 in /  0 mm 90 W/m2
13:18 50.2 °F /  10.1 °C 45.8 °F /  7.7 °C 29.02 in /  982.6 hPa West 16.0 mph /  25.7 km/h 28.0 mph /  45.1 km/h 85 % 0.00 in /  0 mm 181 W/m2
13:23 50.2 °F /  10.1 °C 45.8 °F /  7.7 °C 29.02 in /  982.6 hPa WSW 15.0 mph /  24.1 km/h 22.0 mph /  35.4 km/h 85 % 0.00 in /  0 mm 169 W/m2
13:26 50.2 °F /  10.1 °C 45.8 °F /  7.7 °C 29.02 in /  982.6 hPa WSW 14.0 mph /  22.5 km/h 26.0 mph /  41.8 km/h 85 % 0.00 in /  0 mm 91 W/m2
13:27 50.2 °F /  10.1 °C 45.8 °F /  7.7 °C 29.02 in /  982.6 hPa WSW 14.0 mph /  22.5 km/h 21.0 mph /  33.8 km/h 85 % 0.00 in /  0 mm 77 W/m2
13:32 50.0 °F /  10 °C 45.7 °F /  7.6 °C 29.02 in /  982.6 hPa WSW 15.0 mph /  24.1 km/h 23.0 mph /  37 km/h 85 % 0.00 in /  0 mm 63 W/m2
13:37 50.0 °F /  10 °C 45.7 °F /  7.6 °C 29.02 in /  982.6 hPa WSW 16.0 mph /  25.7 km/h 25.0 mph /  40.2 km/h 85 % 0.00 in /  0 mm 178 W/m2
13:41 50.0 °F /  10 °C 45.7 °F /  7.6 °C 29.02 in /  982.6 hPa West 16.0 mph /  25.7 km/h 26.0 mph /  41.8 km/h 85 % 0.00 in /  0 mm 70 W/m2
13:42 50.0 °F /  10 °C 45.7 °F /  7.6 °C 29.02 in /  982.6 hPa West 15.0 mph /  24.1 km/h 24.0 mph /  38.6 km/h 85 % 0.00 in /  0 mm 76 W/m2
13:43 50.0 °F /  10 °C 45.7 °F /  7.6 °C 29.02 in /  982.6 hPa West 13.0 mph /  20.9 km/h 24.0 mph /  38.6 km/h 85 % 0.00 in /  0 mm 65 W/m2
13:48 49.8 °F /  9.9 °C 45.5 °F /  7.5 °C 29.02 in /  982.6 hPa WSW 14.0 mph /  22.5 km/h 24.0 mph /  38.6 km/h 85 % 0.00 in /  0 mm 54 W/m2
13:50 49.8 °F /  9.9 °C 45.5 °F /  7.5 °C 29.02 in /  982.6 hPa WSW 15.0 mph /  24.1 km/h 26.0 mph /  41.8 km/h 85 % 0.00 in /  0 mm 54 W/m2
13:54 49.6 °F /  9.8 °C 45.3 °F /  7.4 °C 29.02 in /  982.6 hPa WSW 15.0 mph /  24.1 km/h 26.0 mph /  41.8 km/h 85 % 0.00 in /  0 mm 74 W/m2
13:59 49.6 °F /  9.8 °C 45.3 °F /  7.4 °C 29.02 in /  982.6 hPa WSW 18.0 mph /  29 km/h 25.0 mph /  40.2 km/h 85 % 0.00 in /  0 mm 84 W/m2
14:03 49.6 °F /  9.8 °C 45.3 °F /  7.4 °C 29.02 in /  982.6 hPa WSW 14.0 mph /  22.5 km/h 22.0 mph /  35.4 km/h 85 % 0.00 in /  0 mm 56 W/m2
14:08 49.6 °F /  9.8 °C 45.3 °F /  7.4 °C 29.02 in /  982.6 hPa WSW 16.0 mph /  25.7 km/h 25.0 mph /  40.2 km/h 85 % 0.00 in /  0 mm 47 W/m2
14:10 49.6 °F /  9.8 °C 45.3 °F /  7.4 °C 29.02 in /  982.6 hPa WSW 16.0 mph /  25.7 km/h 22.0 mph /  35.4 km/h 85 % 0.00 in /  0 mm 65 W/m2
14:15 49.6 °F /  9.8 °C 45.3 °F /  7.4 °C 29.02 in /  982.6 hPa WSW 11.0 mph /  17.7 km/h 20.0 mph /  32.2 km/h 85 % 0.00 in /  0 mm 58 W/m2
14:18 49.6 °F /  9.8 °C 45.6 °F /  7.6 °C 29.02 in /  982.6 hPa West 14.0 mph /  22.5 km/h 22.0 mph /  35.4 km/h 86 % 0.00 in /  0 mm 134 W/m2
14:22 49.6 °F /  9.8 °C 45.6 °F /  7.6 °C 29.02 in /  982.6 hPa WSW 13.0 mph /  20.9 km/h 19.0 mph /  30.6 km/h 86 % 0.00 in /  0 mm 46 W/m2
14:25 49.6 °F /  9.8 °C 45.6 °F /  7.6 °C 29.02 in /  982.6 hPa WSW 9.0 mph /  14.5 km/h 14.0 mph /  22.5 km/h 86 % 0.00 in /  0 mm 69 W/m2
14:27 49.6 °F /  9.8 °C 45.6 °F /  7.6 °C 29.02 in /  982.6 hPa WSW 12.0 mph /  19.3 km/h 19.0 mph /  30.6 km/h 86 % 0.00 in /  0 mm 33 W/m2
14:32 49.6 °F /  9.8 °C 45.3 °F /  7.4 °C 29.02 in /  982.6 hPa West 12.0 mph /  19.3 km/h 20.0 mph /  32.2 km/h 85 % 0.00 in /  0 mm 16 W/m2
14:37 49.6 °F /  9.8 °C 45.3 °F /  7.4 °C 29.03 in /  983 hPa WSW 15.0 mph /  24.1 km/h 28.0 mph /  45.1 km/h 85 % 0.00 in /  0 mm 9 W/m2
14:42 48.6 °F /  9.2 °C 43.6 °F /  6.4 °C 29.04 in /  983.3 hPa West 22.0 mph /  35.4 km/h 35.0 mph /  56.3 km/h 83 % 0.00 in /  0 mm 37 W/m2
14:47 47.5 °F /  8.6 °C 43.2 °F /  6.2 °C 29.05 in /  983.6 hPa West 17.0 mph /  27.4 km/h 26.0 mph /  41.8 km/h 85 % 0.00 in /  0 mm 33 W/m2
14:48 47.3 °F /  8.5 °C 43.0 °F /  6.1 °C 29.05 in /  983.6 hPa West 15.0 mph /  24.1 km/h 24.0 mph /  38.6 km/h 85 % 0.00 in /  0 mm 54 W/m2
14:51 46.9 °F /  8.3 °C 43.0 °F /  6.1 °C 29.05 in /  983.6 hPa West 18.0 mph /  29 km/h 30.0 mph /  48.3 km/h 86 % 0.00 in /  0 mm 98 W/m2
14:56 46.0 °F /  7.8 °C 42.1 °F /  5.6 °C 29.06 in /  984 hPa West 21.0 mph /  33.8 km/h 39.0 mph /  62.8 km/h 86 % 0.00 in /  0 mm 77 W/m2
15:03 45.1 °F /  7.3 °C 40.9 °F /  4.9 °C 29.05 in /  983.6 hPa West 24.0 mph /  38.6 km/h 33.0 mph /  53.1 km/h 85 % 0.00 in /  0 mm 35 W/m2
15:08 44.8 °F /  7.1 °C 40.5 °F /  4.7 °C 29.05 in /  983.6 hPa West 19.0 mph /  30.6 km/h 32.0 mph /  51.5 km/h 85 % 0.00 in /  0 mm 33 W/m2
15:11 44.4 °F /  6.9 °C 40.2 °F /  4.6 °C 29.06 in /  984 hPa West 19.0 mph /  30.6 km/h 30.0 mph /  48.3 km/h 85 % 0.00 in /  0 mm 25 W/m2
15:15 44.2 °F /  6.8 °C 40.0 °F /  4.4 °C 29.06 in /  984 hPa West 16.0 mph /  25.7 km/h 37.0 mph /  59.5 km/h 85 % 0.00 in /  0 mm 18 W/m2
15:18 44.2 °F /  6.8 °C 40.0 °F /  4.4 °C 29.06 in /  984 hPa West 19.0 mph /  30.6 km/h 32.0 mph /  51.5 km/h 85 % 0.00 in /  0 mm 18 W/m2
15:21 44.1 °F /  6.7 °C 39.8 °F /  4.3 °C 29.05 in /  983.6 hPa West 24.0 mph /  38.6 km/h 39.0 mph /  62.8 km/h 85 % 0.00 in /  0 mm 21 W/m2
15:23 44.1 °F /  6.7 °C 39.8 °F /  4.3 °C 29.05 in /  983.6 hPa West 24.0 mph /  38.6 km/h 33.0 mph /  53.1 km/h 85 % 0.00 in /  0 mm 25 W/m2
15:25 43.9 °F /  6.6 °C 39.7 °F /  4.3 °C 29.05 in /  983.6 hPa West 22.0 mph /  35.4 km/h 35.0 mph /  56.3 km/h 85 % 0.00 in /  0 mm 19 W/m2
15:30 43.7 °F /  6.5 °C 39.8 °F /  4.3 °C 29.04 in /  983.3 hPa West 25.0 mph /  40.2 km/h 37.0 mph /  59.5 km/h 86 % 0.00 in /  0 mm 18 W/m2
15:35 43.5 °F /  6.4 °C 39.9 °F /  4.4 °C 29.05 in /  983.6 hPa West 22.0 mph /  35.4 km/h 30.0 mph /  48.3 km/h 87 % 0.00 in /  0 mm 9 W/m2
15:40 43.5 °F /  6.4 °C 39.9 °F /  4.4 °C 29.04 in /  983.3 hPa West 22.0 mph /  35.4 km/h 38.0 mph /  61.2 km/h 87 % 0.00 in /  0 mm 0 W/m2
15:43 43.7 °F /  6.5 °C 40.1 °F /  4.5 °C 29.05 in /  983.6 hPa West 25.0 mph /  40.2 km/h 33.0 mph /  53.1 km/h 87 % 0.00 in /  0 mm 5 W/m2
15:45 43.7 °F /  6.5 °C 40.1 °F /  4.5 °C 29.05 in /  983.6 hPa West 23.0 mph /  37 km/h 38.0 mph /  61.2 km/h 87 % 0.00 in /  0 mm 0 W/m2
15:48 43.9 °F /  6.6 °C 40.3 °F /  4.6 °C 29.04 in /  983.3 hPa West 21.0 mph /  33.8 km/h 35.0 mph /  56.3 km/h 87 % 0.00 in /  0 mm 0 W/m2
15:51 43.9 °F /  6.6 °C 40.3 °F /  4.6 °C 29.04 in /  983.3 hPa West 26.0 mph /  41.8 km/h 41.0 mph /  66 km/h 87 % 0.00 in /  0 mm 5 W/m2
15:53 43.9 °F /  6.6 °C 40.6 °F /  4.8 °C 29.04 in /  983.3 hPa West 26.0 mph /  41.8 km/h 50.0 mph /  80.5 km/h 88 % 0.00 in /  0 mm 5 W/m2
15:58 44.1 °F /  6.7 °C 40.4 °F /  4.7 °C 29.03 in /  983 hPa West 28.0 mph /  45.1 km/h 53.0 mph /  85.3 km/h 87 % 0.00 in /  0 mm 0 W/m2
16:03 44.1 °F /  6.7 °C 40.7 °F /  4.8 °C 29.04 in /  983.3 hPa West 24.0 mph /  38.6 km/h 32.0 mph /  51.5 km/h 88 % 0.00 in /  0 mm 0 W/m2
16:08 44.2 °F /  6.8 °C 40.9 °F /  4.9 °C 29.05 in /  983.6 hPa West 28.0 mph /  45.1 km/h 46.0 mph /  74 km/h 88 % 0.00 in /  0 mm 0 W/m2
16:14 44.4 °F /  6.9 °C 40.8 °F /  4.9 °C 29.06 in /  984 hPa West 27.0 mph /  43.5 km/h 45.0 mph /  72.4 km/h 87 % 0.00 in /  0 mm 0 W/m2
16:17 44.4 °F /  6.9 °C 41.1 °F /  5.1 °C 29.06 in /  984 hPa West 24.0 mph /  38.6 km/h 33.0 mph /  53.1 km/h 88 % 0.00 in /  0 mm 0 W/m2
16:22 44.2 °F /  6.8 °C 40.6 °F /  4.8 °C 29.07 in /  984.3 hPa West 27.0 mph /  43.5 km/h 42.0 mph /  67.6 km/h 87 % 0.00 in /  0 mm 0 W/m2
16:24 44.2 °F /  6.8 °C 40.6 °F /  4.8 °C 29.08 in /  984.6 hPa West 24.0 mph /  38.6 km/h 44.0 mph /  70.8 km/h 87 % 0.00 in /  0 mm 0 W/m2
16:27 44.2 °F /  6.8 °C 40.3 °F /  4.6 °C 29.08 in /  984.6 hPa West 27.0 mph /  43.5 km/h 42.0 mph /  67.6 km/h 86 % 0.00 in /  0 mm 0 W/m2
16:32 44.1 °F /  6.7 °C 40.1 °F /  4.5 °C 29.09 in /  985 hPa West 26.0 mph /  41.8 km/h 39.0 mph /  62.8 km/h 86 % 0.00 in /  0 mm 0 W/m2
16:36 43.9 °F /  6.6 °C 40.0 °F /  4.4 °C 29.09 in /  985 hPa West 28.0 mph /  45.1 km/h 45.0 mph /  72.4 km/h 86 % 0.00 in /  0 mm 0 W/m2
16:38 43.7 °F /  6.5 °C 39.8 °F /  4.3 °C 29.09 in /  985 hPa West 23.0 mph /  37 km/h 36.0 mph /  57.9 km/h 86 % 0.00 in /  0 mm 0 W/m2
16:43 43.3 °F /  6.3 °C 39.4 °F /  4.1 °C 29.10 in /  985.3 hPa West 22.0 mph /  35.4 km/h 34.0 mph /  54.7 km/h 86 % 0.00 in /  0 mm 0 W/m2
16:45 43.2 °F /  6.2 °C 39.3 °F /  4.1 °C 29.10 in /  985.3 hPa West 23.0 mph /  37 km/h 34.0 mph /  54.7 km/h 86 % 0.00 in /  0 mm 0 W/m2
16:50 43.0 °F /  6.1 °C 39.4 °F /  4.1 °C 29.10 in /  985.3 hPa West 22.0 mph /  35.4 km/h 31.0 mph /  49.9 km/h 87 % 0.00 in /  0 mm 0 W/m2
16:55 42.6 °F /  5.9 °C 39.0 °F /  3.9 °C 29.11 in /  985.7 hPa West 23.0 mph /  37 km/h 31.0 mph /  49.9 km/h 87 % 0.00 in /  0 mm 0 W/m2
16:56 42.6 °F /  5.9 °C 39.0 °F /  3.9 °C 29.11 in /  985.7 hPa West 23.0 mph /  37 km/h 31.0 mph /  49.9 km/h 87 % 0.00 in /  0 mm 0 W/m2
16:58 42.6 °F /  5.9 °C 39.0 °F /  3.9 °C 29.11 in /  985.7 hPa West 22.0 mph /  35.4 km/h 31.0 mph /  49.9 km/h 87 % 0.00 in /  0 mm 0 W/m2
17:01 42.6 °F /  5.9 °C 39.3 °F /  4.1 °C 29.12 in /  986 hPa WNW 20.0 mph /  32.2 km/h 32.0 mph /  51.5 km/h 88 % 0.00 in /  0 mm 0 W/m2
17:05 42.6 °F /  5.9 °C 39.3 °F /  4.1 °C 29.12 in /  986 hPa West 20.0 mph /  32.2 km/h 30.0 mph /  48.3 km/h 88 % 0.00 in /  0 mm 0 W/m2
17:11 42.4 °F /  5.8 °C 39.1 °F /  3.9 °C 29.12 in /  986 hPa West 21.0 mph /  33.8 km/h 35.0 mph /  56.3 km/h 88 % 0.00 in /  0 mm 0 W/m2
17:12 42.4 °F /  5.8 °C 39.1 °F /  3.9 °C 29.12 in /  986 hPa West 21.0 mph /  33.8 km/h 35.0 mph /  56.3 km/h 88 % 0.00 in /  0 mm 0 W/m2
17:17 42.4 °F /  5.8 °C 39.1 °F /  3.9 °C 29.12 in /  986 hPa West 15.0 mph /  24.1 km/h 25.0 mph /  40.2 km/h 88 % 0.00 in /  0 mm 0 W/m2
17:20 42.4 °F /  5.8 °C 39.1 °F /  3.9 °C 29.13 in /  986.3 hPa West 22.0 mph /  35.4 km/h 31.0 mph /  49.9 km/h 88 % 0.00 in /  0 mm 0 W/m2
17:21 42.4 °F /  5.8 °C 39.1 °F /  3.9 °C 29.13 in /  986.3 hPa West 22.0 mph /  35.4 km/h 31.0 mph /  49.9 km/h 88 % 0.00 in /  0 mm 0 W/m2
17:26 42.6 °F /  5.9 °C 39.3 °F /  4.1 °C 29.13 in /  986.3 hPa West 19.0 mph /  30.6 km/h 28.0 mph /  45.1 km/h 88 % 0.00 in /  0 mm 0 W/m2
17:29 42.6 °F /  5.9 °C 39.3 °F /  4.1 °C 29.13 in /  986.3 hPa West 20.0 mph /  32.2 km/h 32.0 mph /  51.5 km/h 88 % 0.00 in /  0 mm 0 W/m2
17:33 42.8 °F /  6 °C 39.2 °F /  4 °C 29.14 in /  986.7 hPa West 23.0 mph /  37 km/h 31.0 mph /  49.9 km/h 87 % 0.00 in /  0 mm 0 W/m2
17:36 43.0 °F /  6.1 °C 39.4 °F /  4.1 °C 29.14 in /  986.7 hPa West 25.0 mph /  40.2 km/h 42.0 mph /  67.6 km/h 87 % 0.00 in /  0 mm 0 W/m2
17:41 43.0 °F /  6.1 °C 39.4 °F /  4.1 °C 29.14 in /  986.7 hPa West 22.0 mph /  35.4 km/h 38.0 mph /  61.2 km/h 87 % 0.00 in /  0 mm 0 W/m2
17:42 43.0 °F /  6.1 °C 39.4 °F /  4.1 °C 29.15 in /  987 hPa WNW 23.0 mph /  37 km/h 34.0 mph /  54.7 km/h 87 % 0.00 in /  0 mm 0 W/m2
17:47 42.8 °F /  6 °C 39.2 °F /  4 °C 29.15 in /  987 hPa West 23.0 mph /  37 km/h 35.0 mph /  56.3 km/h 87 % 0.00 in /  0 mm 0 W/m2
17:52 42.6 °F /  5.9 °C 39.3 °F /  4.1 °C 29.16 in /  987.4 hPa West 22.0 mph /  35.4 km/h 30.0 mph /  48.3 km/h 88 % 0.00 in /  0 mm 0 W/m2
17:57 42.6 °F /  5.9 °C 39.6 °F /  4.2 °C 29.17 in /  987.7 hPa WNW 19.0 mph /  30.6 km/h 29.0 mph /  46.7 km/h 89 % 0.00 in /  0 mm 0 W/m2
17:58 42.4 °F /  5.8 °C 39.4 °F /  4.1 °C 29.17 in /  987.7 hPa WNW 19.0 mph /  30.6 km/h 29.0 mph /  46.7 km/h 89 % 0.00 in /  0 mm 0 W/m2
18:03 42.4 °F /  5.8 °C 39.4 °F /  4.1 °C 29.17 in /  987.7 hPa West 17.0 mph /  27.4 km/h 26.0 mph /  41.8 km/h 89 % 0.00 in /  0 mm 0 W/m2
18:08 42.4 °F /  5.8 °C 39.4 °F /  4.1 °C 29.17 in /  987.7 hPa WNW 24.0 mph /  38.6 km/h 32.0 mph /  51.5 km/h 89 % 0.00 in /  0 mm 0 W/m2
18:13 42.4 °F /  5.8 °C 39.4 °F /  4.1 °C 29.17 in /  987.7 hPa WNW 22.0 mph /  35.4 km/h 30.0 mph /  48.3 km/h 89 % 0.00 in /  0 mm 0 W/m2
18:18 42.6 °F /  5.9 °C 39.9 °F /  4.4 °C 29.18 in /  988 hPa WNW 19.0 mph /  30.6 km/h 33.0 mph /  53.1 km/h 90 % 0.00 in /  0 mm 0 W/m2
18:26 42.4 °F /  5.8 °C 39.7 °F /  4.3 °C 29.18 in /  988 hPa West 21.0 mph /  33.8 km/h 31.0 mph /  49.9 km/h 90 % 0.00 in /  0 mm 0 W/m2
18:29 42.4 °F /  5.8 °C 39.7 °F /  4.3 °C 29.19 in /  988.4 hPa WNW 18.0 mph /  29 km/h 28.0 mph /  45.1 km/h 90 % 0.00 in /  0 mm 0 W/m2
18:30 42.4 °F /  5.8 °C 39.7 °F /  4.3 °C 29.18 in /  988 hPa WNW 19.0 mph /  30.6 km/h 28.0 mph /  45.1 km/h 90 % 0.00 in /  0 mm 0 W/m2
18:35 42.4 °F /  5.8 °C 39.7 °F /  4.3 °C 29.18 in /  988 hPa WNW 18.0 mph /  29 km/h 32.0 mph /  51.5 km/h 90 % 0.00 in /  0 mm 0 W/m2
18:36 42.4 °F /  5.8 °C 39.7 °F /  4.3 °C 29.18 in /  988 hPa West 16.0 mph /  25.7 km/h 24.0 mph /  38.6 km/h 90 % 0.00 in /  0 mm 0 W/m2
18:41 42.4 °F /  5.8 °C 39.4 °F /  4.1 °C 29.18 in /  988 hPa West 19.0 mph /  30.6 km/h 27.0 mph /  43.5 km/h 89 % 0.00 in /  0 mm 0 W/m2
18:42 42.4 °F /  5.8 °C 39.4 °F /  4.1 °C 29.17 in /  987.7 hPa West 18.0 mph /  29 km/h 27.0 mph /  43.5 km/h 89 % 0.00 in /  0 mm 0 W/m2
18:47 42.6 °F /  5.9 °C 39.0 °F /  3.9 °C 29.18 in /  988 hPa West 19.0 mph /  30.6 km/h 30.0 mph /  48.3 km/h 87 % 0.00 in /  0 mm 0 W/m2
18:52 42.8 °F /  6 °C 38.9 °F /  3.8 °C 29.18 in /  988 hPa WNW 22.0 mph /  35.4 km/h 32.0 mph /  51.5 km/h 86 % 0.00 in /  0 mm 0 W/m2
18:57 42.8 °F /  6 °C 38.9 °F /  3.8 °C 29.17 in /  987.7 hPa WNW 22.0 mph /  35.4 km/h 28.0 mph /  45.1 km/h 86 % 0.00 in /  0 mm 0 W/m2
18:58 43.0 °F /  6.1 °C 39.1 °F /  3.9 °C 29.17 in /  987.7 hPa WNW 21.0 mph /  33.8 km/h 28.0 mph /  45.1 km/h 86 % 0.00 in /  0 mm 0 W/m2
19:03 43.0 °F /  6.1 °C 38.8 °F /  3.8 °C 29.18 in /  988 hPa WNW 20.0 mph /  32.2 km/h 31.0 mph /  49.9 km/h 85 % 0.00 in /  0 mm 0 W/m2
19:05 43.0 °F /  6.1 °C 38.5 °F /  3.6 °C 29.18 in /  988 hPa WNW 21.0 mph /  33.8 km/h 33.0 mph /  53.1 km/h 84 % 0.00 in /  0 mm 0 W/m2
19:10 43.0 °F /  6.1 °C 38.5 °F /  3.6 °C 29.18 in /  988 hPa WNW 20.0 mph /  32.2 km/h 31.0 mph /  49.9 km/h 84 % 0.00 in /  0 mm 0 W/m2
19:11 43.0 °F /  6.1 °C 38.5 °F /  3.6 °C 29.18 in /  988 hPa WNW 21.0 mph /  33.8 km/h 30.0 mph /  48.3 km/h 84 % 0.00 in /  0 mm 0 W/m2
19:17 43.0 °F /  6.1 °C 38.5 °F /  3.6 °C 29.18 in /  988 hPa West 21.0 mph /  33.8 km/h 31.0 mph /  49.9 km/h 84 % 0.00 in /  0 mm 0 W/m2
19:22 42.8 °F /  6 °C 38.6 °F /  3.7 °C 29.19 in /  988.4 hPa WNW 18.0 mph /  29 km/h 29.0 mph /  46.7 km/h 85 % 0.00 in /  0 mm 0 W/m2
19:23 42.8 °F /  6 °C 38.6 °F /  3.7 °C 29.19 in /  988.4 hPa WNW 17.0 mph /  27.4 km/h 26.0 mph /  41.8 km/h 85 % 0.00 in /  0 mm 0 W/m2
19:26 42.6 °F /  5.9 °C 38.4 °F /  3.6 °C 29.18 in /  988 hPa WNW 19.0 mph /  30.6 km/h 29.0 mph /  46.7 km/h 85 % 0.00 in /  0 mm 0 W/m2
19:28 42.6 °F /  5.9 °C 38.7 °F /  3.7 °C 29.19 in /  988.4 hPa West 20.0 mph /  32.2 km/h 33.0 mph /  53.1 km/h 86 % 0.00 in /  0 mm 0 W/m2
19:30 42.6 °F /  5.9 °C 38.7 °F /  3.7 °C 29.19 in /  988.4 hPa WNW 18.0 mph /  29 km/h 28.0 mph /  45.1 km/h 86 % 0.00 in /  0 mm 0 W/m2
19:35 42.4 °F /  5.8 °C 38.5 °F /  3.6 °C 29.19 in /  988.4 hPa WNW 19.0 mph /  30.6 km/h 29.0 mph /  46.7 km/h 86 % 0.00 in /  0 mm 0 W/m2
19:38 42.4 °F /  5.8 °C 38.2 °F /  3.4 °C 29.19 in /  988.4 hPa WNW 18.0 mph /  29 km/h 27.0 mph /  43.5 km/h 85 % 0.00 in /  0 mm 0 W/m2
19:43 42.6 °F /  5.9 °C 38.4 °F /  3.6 °C 29.19 in /  988.4 hPa WNW 19.0 mph /  30.6 km/h 30.0 mph /  48.3 km/h 85 % 0.00 in /  0 mm 0 W/m2
19:48 42.6 °F /  5.9 °C 38.1 °F /  3.4 °C 29.19 in /  988.4 hPa WNW 19.0 mph /  30.6 km/h 30.0 mph /  48.3 km/h 84 % 0.00 in /  0 mm 0 W/m2
19:53 42.6 °F /  5.9 °C 38.1 °F /  3.4 °C 29.19 in /  988.4 hPa WNW 17.0 mph /  27.4 km/h 28.0 mph /  45.1 km/h 84 % 0.00 in /  0 mm 0 W/m2
19:58 42.6 °F /  5.9 °C 38.1 °F /  3.4 °C 29.19 in /  988.4 hPa WNW 19.0 mph /  30.6 km/h 30.0 mph /  48.3 km/h 84 % 0.00 in /  0 mm 0 W/m2
20:03 42.6 °F /  5.9 °C 38.4 °F /  3.6 °C 29.19 in /  988.4 hPa WNW 20.0 mph /  32.2 km/h 27.0 mph /  43.5 km/h 85 % 0.00 in /  0 mm 0 W/m2
20:08 42.6 °F /  5.9 °C 38.4 °F /  3.6 °C 29.19 in /  988.4 hPa WNW 18.0 mph /  29 km/h 28.0 mph /  45.1 km/h 85 % 0.00 in /  0 mm 0 W/m2
20:13 42.6 °F /  5.9 °C 38.4 °F /  3.6 °C 29.20 in /  988.7 hPa West 17.0 mph /  27.4 km/h 26.0 mph /  41.8 km/h 85 % 0.00 in /  0 mm 0 W/m2
20:15 42.6 °F /  5.9 °C 38.4 °F /  3.6 °C 29.20 in /  988.7 hPa West 17.0 mph /  27.4 km/h 26.0 mph /  41.8 km/h 85 % 0.00 in /  0 mm 0 W/m2
20:16 42.6 °F /  5.9 °C 38.4 °F /  3.6 °C 29.19 in /  988.4 hPa West 17.0 mph /  27.4 km/h 23.0 mph /  37 km/h 85 % 0.00 in /  0 mm 0 W/m2
20:20 42.6 °F /  5.9 °C 38.1 °F /  3.4 °C 29.20 in /  988.7 hPa West 18.0 mph /  29 km/h 29.0 mph /  46.7 km/h 84 % 0.00 in /  0 mm 0 W/m2
20:25 42.6 °F /  5.9 °C 38.1 °F /  3.4 °C 29.20 in /  988.7 hPa West 16.0 mph /  25.7 km/h 26.0 mph /  41.8 km/h 84 % 0.00 in /  0 mm 0 W/m2
20:26 42.6 °F /  5.9 °C 38.1 °F /  3.4 °C 29.20 in /  988.7 hPa West 14.0 mph /  22.5 km/h 26.0 mph /  41.8 km/h 84 % 0.00 in /  0 mm 0 W/m2
20:32 42.6 °F /  5.9 °C 38.1 °F /  3.4 °C 29.20 in /  988.7 hPa West 17.0 mph /  27.4 km/h 28.0 mph /  45.1 km/h 84 % 0.00 in /  0 mm 0 W/m2
20:37 42.6 °F /  5.9 °C 38.1 °F /  3.4 °C 29.20 in /  988.7 hPa West 18.0 mph /  29 km/h 25.0 mph /  40.2 km/h 84 % 0.00 in /  0 mm 0 W/m2
20:41 42.8 °F /  6 °C 38.3 °F /  3.5 °C 29.21 in /  989.1 hPa West 18.0 mph /  29 km/h 28.0 mph /  45.1 km/h 84 % 0.00 in /  0 mm 0 W/m2
20:46 42.8 °F /  6 °C 38.3 °F /  3.5 °C 29.21 in /  989.1 hPa West 16.0 mph /  25.7 km/h 24.0 mph /  38.6 km/h 84 % 0.00 in /  0 mm 0 W/m2
20:47 42.8 °F /  6 °C 38.3 °F /  3.5 °C 29.21 in /  989.1 hPa West 17.0 mph /  27.4 km/h 26.0 mph /  41.8 km/h 84 % 0.00 in /  0 mm 0 W/m2
20:52 43.0 °F /  6.1 °C 38.2 °F /  3.4 °C 29.21 in /  989.1 hPa West 18.0 mph /  29 km/h 28.0 mph /  45.1 km/h 83 % 0.00 in /  0 mm 0 W/m2
20:57 43.0 °F /  6.1 °C 38.2 °F /  3.4 °C 29.22 in /  989.4 hPa WSW 18.0 mph /  29 km/h 27.0 mph /  43.5 km/h 83 % 0.00 in /  0 mm 0 W/m2
21:02 43.0 °F /  6.1 °C 38.2 °F /  3.4 °C 29.22 in /  989.4 hPa West 11.0 mph /  17.7 km/h 21.0 mph /  33.8 km/h 83 % 0.00 in /  0 mm 0 W/m2
21:06 42.8 °F /  6 °C 38.0 °F /  3.3 °C 29.22 in /  989.4 hPa West 16.0 mph /  25.7 km/h 23.0 mph /  37 km/h 83 % 0.00 in /  0 mm 0 W/m2
21:14 42.8 °F /  6 °C 38.0 °F /  3.3 °C 29.23 in /  989.7 hPa West 11.0 mph /  17.7 km/h 16.0 mph /  25.7 km/h 83 % 0.00 in /  0 mm 0 W/m2
21:19 42.6 °F /  5.9 °C 38.1 °F /  3.4 °C 29.23 in /  989.7 hPa West 8.0 mph /  12.9 km/h 14.0 mph /  22.5 km/h 84 % 0.00 in /  0 mm 0 W/m2
21:24 42.6 °F /  5.9 °C 38.1 °F /  3.4 °C 29.23 in /  989.7 hPa West 7.0 mph /  11.3 km/h 12.0 mph /  19.3 km/h 84 % 0.00 in /  0 mm 0 W/m2
21:27 42.6 °F /  5.9 °C 38.1 °F /  3.4 °C 29.23 in /  989.7 hPa West 8.0 mph /  12.9 km/h 15.0 mph /  24.1 km/h 84 % 0.00 in /  0 mm 0 W/m2
21:33 42.4 °F /  5.8 °C 37.9 °F /  3.3 °C 29.23 in /  989.7 hPa West 7.0 mph /  11.3 km/h 12.0 mph /  19.3 km/h 84 % 0.00 in /  0 mm 0 W/m2
21:34 42.4 °F /  5.8 °C 37.6 °F /  3.1 °C 29.23 in /  989.7 hPa West 7.0 mph /  11.3 km/h 12.0 mph /  19.3 km/h 83 % 0.00 in /  0 mm 0 W/m2
21:36 42.4 °F /  5.8 °C 37.6 °F /  3.1 °C 29.24 in /  990.1 hPa West 11.0 mph /  17.7 km/h 18.0 mph /  29 km/h 83 % 0.00 in /  0 mm 0 W/m2
21:38 42.4 °F /  5.8 °C 37.6 °F /  3.1 °C 29.24 in /  990.1 hPa West 14.0 mph /  22.5 km/h 19.0 mph /  30.6 km/h 83 % 0.00 in /  0 mm 0 W/m2
21:41 42.4 °F /  5.8 °C 37.6 °F /  3.1 °C 29.24 in /  990.1 hPa West 10.0 mph /  16.1 km/h 20.0 mph /  32.2 km/h 83 % 0.00 in /  0 mm 0 W/m2
21:43 42.4 °F /  5.8 °C 37.6 °F /  3.1 °C 29.24 in /  990.1 hPa West 11.0 mph /  17.7 km/h 16.0 mph /  25.7 km/h 83 % 0.00 in /  0 mm 0 W/m2
21:44 42.4 °F /  5.8 °C 37.6 °F /  3.1 °C 29.24 in /  990.1 hPa West 10.0 mph /  16.1 km/h 14.0 mph /  22.5 km/h 83 % 0.00 in /  0 mm 0 W/m2
21:45 42.4 °F /  5.8 °C 37.6 °F /  3.1 °C 29.24 in /  990.1 hPa West 10.0 mph /  16.1 km/h 14.0 mph /  22.5 km/h 83 % 0.00 in /  0 mm 0 W/m2
21:47 42.4 °F /  5.8 °C 37.6 °F /  3.1 °C 29.24 in /  990.1 hPa West 11.0 mph /  17.7 km/h 15.0 mph /  24.1 km/h 83 % 0.00 in /  0 mm 0 W/m2
21:48 42.4 °F /  5.8 °C 37.6 °F /  3.1 °C 29.24 in /  990.1 hPa West 12.0 mph /  19.3 km/h 15.0 mph /  24.1 km/h 83 % 0.00 in /  0 mm 0 W/m2
21:49 42.4 °F /  5.8 °C 37.6 °F /  3.1 °C 29.24 in /  990.1 hPa West 10.0 mph /  16.1 km/h 15.0 mph /  24.1 km/h 83 % 0.00 in /  0 mm 0 W/m2
21:51 42.4 °F /  5.8 °C 37.6 °F /  3.1 °C 29.24 in /  990.1 hPa West 11.0 mph /  17.7 km/h 26.0 mph /  41.8 km/h 83 % 0.00 in /  0 mm 0 W/m2
21:53 42.3 °F /  5.7 °C 37.5 °F /  3.1 °C 29.24 in /  990.1 hPa West 16.0 mph /  25.7 km/h 26.0 mph /  41.8 km/h 83 % 0.00 in /  0 mm 0 W/m2
22:00 42.1 °F /  5.6 °C 37.9 °F /  3.3 °C 29.24 in /  990.1 hPa West 12.0 mph /  19.3 km/h 15.0 mph /  24.1 km/h 85 % 0.00 in /  0 mm 0 W/m2
22:01 41.9 °F /  5.5 °C 37.7 °F /  3.2 °C 29.24 in /  990.1 hPa West 11.0 mph /  17.7 km/h 15.0 mph /  24.1 km/h 85 % 0.00 in /  0 mm 0 W/m2
22:07 41.7 °F /  5.4 °C 37.8 °F /  3.2 °C 29.24 in /  990.1 hPa WNW 10.0 mph /  16.1 km/h 15.0 mph /  24.1 km/h 86 % 0.00 in /  0 mm 0 W/m2
22:10 41.5 °F /  5.3 °C 37.7 °F /  3.2 °C 29.24 in /  990.1 hPa WNW 9.0 mph /  14.5 km/h 13.0 mph /  20.9 km/h 86 % 0.00 in /  0 mm 0 W/m2
22:16 41.5 °F /  5.3 °C 38.0 °F /  3.3 °C 29.24 in /  990.1 hPa WNW 9.0 mph /  14.5 km/h 12.0 mph /  19.3 km/h 87 % 0.00 in /  0 mm 0 W/m2
22:21 41.4 °F /  5.2 °C 37.8 °F /  3.2 °C 29.23 in /  989.7 hPa WNW 8.0 mph /  12.9 km/h 11.0 mph /  17.7 km/h 87 % 0.00 in /  0 mm 0 W/m2
22:26 41.2 °F /  5.1 °C 37.6 °F /  3.1 °C 29.24 in /  990.1 hPa WNW 7.0 mph /  11.3 km/h 12.0 mph /  19.3 km/h 87 % 0.00 in /  0 mm 0 W/m2
22:31 41.2 °F /  5.1 °C 37.9 °F /  3.3 °C 29.23 in /  989.7 hPa West 3.0 mph /  4.8 km/h 7.0 mph /  11.3 km/h 88 % 0.00 in /  0 mm 0 W/m2
22:36 40.8 °F /  4.9 °C 37.3 °F /  2.9 °C 29.23 in /  989.7 hPa West 2.0 mph /  3.2 km/h 5.0 mph /  8 km/h 87 % 0.00 in /  0 mm 0 W/m2
22:38 40.8 °F /  4.9 °C 37.5 °F /  3.1 °C 29.23 in /  989.7 hPa West 3.0 mph /  4.8 km/h 7.0 mph /  11.3 km/h 88 % 0.00 in /  0 mm 0 W/m2
22:43 40.8 °F /  4.9 °C 37.5 °F /  3.1 °C 29.23 in /  989.7 hPa West 7.0 mph /  11.3 km/h 11.0 mph /  17.7 km/h 88 % 0.00 in /  0 mm 0 W/m2
22:48 40.8 °F /  4.9 °C 37.5 °F /  3.1 °C 29.24 in /  990.1 hPa SW 4.0 mph /  6.4 km/h 7.0 mph /  11.3 km/h 88 % 0.00 in /  0 mm 0 W/m2
22:51 40.8 °F /  4.9 °C 37.5 °F /  3.1 °C 29.24 in /  990.1 hPa West 7.0 mph /  11.3 km/h 11.0 mph /  17.7 km/h 88 % 0.00 in /  0 mm 0 W/m2
22:56 41.0 °F /  5 °C 37.4 °F /  3 °C 29.24 in /  990.1 hPa WSW 7.0 mph /  11.3 km/h 10.0 mph /  16.1 km/h 87 % 0.00 in /  0 mm 0 W/m2
22:57 41.0 °F /  5 °C 37.4 °F /  3 °C 29.24 in /  990.1 hPa West 7.0 mph /  11.3 km/h 12.0 mph /  19.3 km/h 87 % 0.00 in /  0 mm 0 W/m2
23:02 41.0 °F /  5 °C 37.4 °F /  3 °C 29.24 in /  990.1 hPa WSW 4.0 mph /  6.4 km/h 6.0 mph /  9.7 km/h 87 % 0.00 in /  0 mm 0 W/m2
23:05 41.2 °F /  5.1 °C 37.6 °F /  3.1 °C 29.24 in /  990.1 hPa SW 5.0 mph /  8 km/h 7.0 mph /  11.3 km/h 87 % 0.00 in /  0 mm 0 W/m2
23:12 41.2 °F /  5.1 °C 37.6 °F /  3.1 °C 29.25 in /  990.4 hPa SW 5.0 mph /  8 km/h 7.0 mph /  11.3 km/h 87 % 0.00 in /  0 mm 0 W/m2
23:17 41.2 °F /  5.1 °C 37.9 °F /  3.3 °C 29.25 in /  990.4 hPa SW 6.0 mph /  9.7 km/h 10.0 mph /  16.1 km/h 88 % 0.00 in /  0 mm 0 W/m2
23:25 41.2 °F /  5.1 °C 37.9 °F /  3.3 °C 29.25 in /  990.4 hPa WSW 8.0 mph /  12.9 km/h 11.0 mph /  17.7 km/h 88 % 0.00 in /  0 mm 0 W/m2
23:30 41.4 °F /  5.2 °C 38.1 °F /  3.4 °C 29.24 in /  990.1 hPa WSW 7.0 mph /  11.3 km/h 12.0 mph /  19.3 km/h 88 % 0.00 in /  0 mm 0 W/m2
23:31 41.4 °F /  5.2 °C 38.1 °F /  3.4 °C 29.24 in /  990.1 hPa WSW 7.0 mph /  11.3 km/h 12.0 mph /  19.3 km/h 88 % 0.00 in /  0 mm 0 W/m2
23:36 41.2 °F /  5.1 °C 37.9 °F /  3.3 °C 29.24 in /  990.1 hPa WSW 8.0 mph /  12.9 km/h 12.0 mph /  19.3 km/h 88 % 0.00 in /  0 mm 0 W/m2
23:38 41.2 °F /  5.1 °C 37.9 °F /  3.3 °C 29.24 in /  990.1 hPa WSW 9.0 mph /  14.5 km/h 14.0 mph /  22.5 km/h 88 % 0.00 in /  0 mm 0 W/m2
23:43 41.2 °F /  5.1 °C 37.9 °F /  3.3 °C 29.25 in /  990.4 hPa West 8.0 mph /  12.9 km/h 11.0 mph /  17.7 km/h 88 % 0.00 in /  0 mm 0 W/m2
23:46 41.0 °F /  5 °C 37.7 °F /  3.2 °C 29.25 in /  990.4 hPa West 8.0 mph /  12.9 km/h 12.0 mph /  19.3 km/h 88 % 0.00 in /  0 mm 0 W/m2
23:56 40.6 °F /  4.8 °C 37.4 °F /  3 °C 29.25 in /  990.4 hPa West 6.0 mph /  9.7 km/h 10.0 mph /  16.1 km/h 88 % 0.00 in /  0 mm 0 W/m2
Delerius-Weather
Compliments of Weather Underground - 3 mb

Data updates at regular intervals.